Observation data for Claude 12 Southwest on 02/11/2018      Previous  Date  Next       Current Mesonet Observations  Soil Data  Daily Summary Page  Observations in Plain Language
KCL1 110600Z 35013KT M09/M14 A3002 RMK A01 T10941139  RH  069%=      5-min Rain = 0
KCL1 110601Z 35015KT M09/M14 A3002 RMK A01 T10941140  RH  069%=      5-min Rain = 0
KCL1 110602Z 35014KT M09/M14 A3002 RMK A01 T10941140  RH  069%=      5-min Rain = 0
KCL1 110603Z 35016KT M09/M14 A3002 RMK A01 T10941140  RH  069%=      5-min Rain = 0
KCL1 110604Z 35015G20KT M09/M14 A3002 RMK A01 T10941140  RH  069%=      5-min Rain = 0
KCL1 110605Z 35018KT M09/M14 A3002 RMK A01 T10941140  RH  069%=      5-min Rain = 0
KCL1 110606Z 35015G21KT M09/M14 A3002 RMK A01 T10941140  RH  069%=      5-min Rain = 0
KCL1 110607Z 36015KT M09/M14 A3002 RMK A01 T10941140  RH  069%=      5-min Rain = 0
KCL1 110608Z 35014KT M09/M14 A3002 RMK A01 T10941140  RH  069%=      5-min Rain = 0
KCL1 110609Z 36018KT M09/M14 A3002 RMK A01 T10941140  RH  069%=      5-min Rain = 0
KCL1 110610Z 00015KT M09/M14 A3002 RMK A01 T10941140  RH  069%=      5-min Rain = 0
KCL1 110611Z 35014G20KT M09/M14 A3002 RMK A01 T10941140  RH  069%=      5-min Rain = 0
KCL1 110612Z 34016KT M09/M14 A3002 RMK A01 T10941140  RH  069%=      5-min Rain = 0
KCL1 110613Z 34013KT M09/M14 A3002 RMK A01 T10941140  RH  069%=      5-min Rain = 0
KCL1 110614Z 35017KT M09/M14 A3002 RMK A01 T10941140  RH  069%=      5-min Rain = 0
KCL1 110615Z 35018KT M09/M14 A3002 RMK A01 T10941140  RH  069%=      5-min Rain = 0
KCL1 110616Z 35017KT M09/M14 A3002 RMK A01 T10941141  RH  069%=      5-min Rain = 0
KCL1 110617Z 34016KT M10/M14 A3002 RMK A01 T10951141  RH  069%=      5-min Rain = 0
KCL1 110618Z 35014KT M10/M14 A3002 RMK A01 T10951141  RH  069%=      5-min Rain = 0
KCL1 110619Z 35017KT M10/M14 A3002 RMK A01 T10951141  RH  069%=      5-min Rain = 0
KCL1 110620Z 35015KT M10/M14 A3002 RMK A01 T10951141  RH  069%=      5-min Rain = 0
KCL1 110621Z 35014G19KT M10/M14 A3002 RMK A01 T10951141  RH  069%=      5-min Rain = 0
KCL1 110622Z 35013G18KT M10/M14 A3002 RMK A01 T10951141  RH  069%=      5-min Rain = 0
KCL1 110623Z 35014KT M10/M14 A3002 RMK A01 T10951141  RH  069%=      5-min Rain = 0
KCL1 110624Z 35011KT M09/M14 A3002 RMK A01 T10941141  RH  069%=      5-min Rain = 0
KCL1 110625Z 35013KT M09/M14 A3002 RMK A01 T10941140  RH  069%=      5-min Rain = 0
KCL1 110626Z 34010G15KT M09/M14 A3002 RMK A01 T10941140  RH  069%=      5-min Rain = 0
KCL1 110627Z 34012KT M09/M14 A3002 RMK A01 T10941140  RH  069%=      5-min Rain = 0
KCL1 110628Z 35011G16KT M09/M14 A3002 RMK A01 T10941140  RH  069%=      5-min Rain = 0
KCL1 110629Z 34015KT M09/M14 A3002 RMK A01 T10941140  RH  069%=      5-min Rain = 0
KCL1 110630Z 35014G19KT M09/M14 A3002 RMK A01 T10941141  RH  069%=      5-min Rain = 0
KCL1 110631Z 34017KT M09/M14 A3002 RMK A01 T10941141  RH  069%=      5-min Rain = 0
KCL1 110632Z 35014G19KT M09/M14 A3002 RMK A01 T10941141  RH  069%=      5-min Rain = 0
KCL1 110633Z 35017KT M09/M14 A3002 RMK A01 T10941141  RH  069%=      5-min Rain = 0
KCL1 110634Z 35016KT M09/M14 A3002 RMK A01 T10941141  RH  069%=      5-min Rain = 0
KCL1 110635Z 35014KT M09/M14 A3002 RMK A01 T10941141  RH  069%=      5-min Rain = 0
KCL1 110636Z 34013G18KT M09/M14 A3002 RMK A01 T10941140  RH  069%=      5-min Rain = 0
KCL1 110637Z 35017KT M09/M14 A3002 RMK A01 T10941141  RH  069%=      5-min Rain = 0
KCL1 110638Z 34014KT M09/M14 A3002 RMK A01 T10941141  RH  069%=      5-min Rain = 0
KCL1 110639Z 34014KT M09/M14 A3002 RMK A01 T10941140  RH  069%=      5-min Rain = 0
KCL1 110640Z 34015KT M09/M14 A3002 RMK A01 T10941140  RH  069%=      5-min Rain = 0
KCL1 110641Z 34013KT M10/M14 A3002 RMK A01 T10951141  RH  069%=      5-min Rain = 0
KCL1 110642Z 35014KT M10/M14 A3002 RMK A01 T10951141  RH  069%=      5-min Rain = 0
KCL1 110643Z 35012KT M10/M14 A3003 RMK A01 T10951141  RH  069%=      5-min Rain = 0
KCL1 110644Z 35013KT M10/M14 A3003 RMK A01 T10951141  RH  069%=      5-min Rain = 0
KCL1 110645Z 34012KT M10/M14 A3003 RMK A01 T10951141  RH  069%=      5-min Rain = 0
KCL1 110646Z 35013KT M10/M14 A3003 RMK A01 T10951140  RH  069%=      5-min Rain = 0
KCL1 110647Z 35014KT M10/M14 A3003 RMK A01 T10951140  RH  069%=      5-min Rain = 0
KCL1 110648Z 34012KT M10/M14 A3002 RMK A01 T10951141  RH  069%=      5-min Rain = 0
KCL1 110649Z 35014G20KT M10/M14 A3002 RMK A01 T10951140  RH  069%=      5-min Rain = 0
KCL1 110650Z 35014KT M10/M14 A3002 RMK A01 T10951140  RH  069%=      5-min Rain = 0
KCL1 110651Z 35015KT M10/M14 A3002 RMK A01 T10951140  RH  069%=      5-min Rain = 0
KCL1 110652Z 35015G20KT M10/M14 A3002 RMK A01 T10951141  RH  069%=      5-min Rain = 0
KCL1 110653Z 35015KT M10/M14 A3002 RMK A01 T10951141  RH  070%=      5-min Rain = 0
KCL1 110654Z 35013G18KT M10/M14 A3003 RMK A01 T10951140  RH  070%=      5-min Rain = 0
KCL1 110655Z 35015KT M10/M14 A3003 RMK A01 T10951141  RH  070%=      5-min Rain = 0
KCL1 110656Z 36010KT M10/M14 A3003 RMK A01 T10951140  RH  070%=      5-min Rain = 0
KCL1 110657Z 35013G18KT M10/M14 A3003 RMK A01 T10951140  RH  070%=      5-min Rain = 0
KCL1 110658Z 35016KT M10/M14 A3003 RMK A01 T10951140  RH  070%=      5-min Rain = 0
KCL1 110659Z 35012KT M10/M14 A3003 RMK A01 T10951140  RH  070%=      5-min Rain = 0
KCL1 110700Z 34012G18KT M10/M14 A3004 RMK A01 T10951140  RH  070%=      5-min Rain = 0
KCL1 110701Z 35015KT M10/M14 A3004 RMK A01 T10951140  RH  070%=      5-min Rain = 0
KCL1 110702Z 35013G18KT M10/M14 A3003 RMK A01 T10951140  RH  070%=      5-min Rain = 0
KCL1 110703Z 35014KT M10/M14 A3003 RMK A01 T10961140  RH  070%=      5-min Rain = 0
KCL1 110704Z 36013KT M10/M14 A3003 RMK A01 T10961140  RH  070%=      5-min Rain = 0
KCL1 110705Z 35013KT M10/M14 A3003 RMK A01 T10961140  RH  070%=      5-min Rain = 0
KCL1 110706Z 35011KT M10/M14 A3003 RMK A01 T10961141  RH  070%=      5-min Rain = 0
KCL1 110707Z 35013KT M10/M14 A3003 RMK A01 T10961141  RH  070%=      5-min Rain = 0
KCL1 110708Z 36011KT M10/M14 A3003 RMK A01 T10961141  RH  070%=      5-min Rain = 0
KCL1 110709Z 35011KT M10/M14 A3003 RMK A01 T10971141  RH  070%=      5-min Rain = 0
KCL1 110710Z 35010KT M10/M14 A3003 RMK A01 T10971141  RH  070%=      5-min Rain = 0
KCL1 110711Z 35012KT M10/M14 A3003 RMK A01 T10971141  RH  070%=      5-min Rain = 0
KCL1 110712Z 35012KT M10/M14 A3003 RMK A01 T10971141  RH  070%=      5-min Rain = 0
KCL1 110713Z 35008KT M10/M14 A3003 RMK A01 T10971141  RH  071%=      5-min Rain = 0
KCL1 110714Z 34008KT M10/M14 A3003 RMK A01 T10981141  RH  071%=      5-min Rain = 0
KCL1 110715Z 35007KT M10/M14 A3003 RMK A01 T10981141  RH  071%=      5-min Rain = 0
KCL1 110716Z 35008KT M10/M14 A3003 RMK A01 T10981141  RH  071%=      5-min Rain = 0
KCL1 110717Z 36008KT M10/M14 A3004 RMK A01 T10981141  RH  071%=      5-min Rain = 0
KCL1 110718Z 35008KT M10/M14 A3004 RMK A01 T10981141  RH  071%=      5-min Rain = 0
KCL1 110719Z 35008KT M10/M14 A3004 RMK A01 T10981141  RH  071%=      5-min Rain = 0
KCL1 110720Z 36009KT M10/M14 A3003 RMK A01 T10991142  RH  071%=      5-min Rain = 0
KCL1 110721Z 35008KT M10/M14 A3003 RMK A01 T10991142  RH  071%=      5-min Rain = 0
KCL1 110722Z 35008KT M10/M14 A3003 RMK A01 T10991141  RH  071%=      5-min Rain = 0
KCL1 110723Z 35008KT M10/M14 A3004 RMK A01 T10991142  RH  071%=      5-min Rain = 0
KCL1 110724Z 35009KT M10/M14 A3003 RMK A01 T10991142  RH  071%=      5-min Rain = 0
KCL1 110725Z 35009G14KT M10/M14 A3003 RMK A01 T10991142  RH  071%=      5-min Rain = 0
KCL1 110726Z 35012KT M10/M14 A3003 RMK A01 T10991141  RH  071%=      5-min Rain = 0
KCL1 110727Z 35013KT M10/M14 A3003 RMK A01 T10991141  RH  071%=      5-min Rain = 0
KCL1 110728Z 35011KT M10/M14 A3003 RMK A01 T10991141  RH  071%=      5-min Rain = 0
KCL1 110729Z 35013KT M10/M14 A3003 RMK A01 T10991141  RH  071%=      5-min Rain = 0
KCL1 110730Z 35012KT M10/M14 A3003 RMK A01 T10991141  RH  071%=      5-min Rain = 0
KCL1 110731Z 36013KT M10/M14 A3004 RMK A01 T10991141  RH  071%=      5-min Rain = 0
KCL1 110732Z 35010KT M10/M14 A3004 RMK A01 T10991141  RH  072%=      5-min Rain = 0
KCL1 110733Z 36013KT M10/M14 A3004 RMK A01 T10991141  RH  072%=      5-min Rain = 0
KCL1 110734Z 35011KT M10/M14 A3004 RMK A01 T10991141  RH  072%=      5-min Rain = 0
KCL1 110735Z 00011KT M10/M14 A3004 RMK A01 T10991141  RH  072%=      5-min Rain = 0
KCL1 110736Z 36013KT M10/M14 A3003 RMK A01 T10991141  RH  072%=      5-min Rain = 0
KCL1 110737Z 35012KT M10/M14 A3003 RMK A01 T10991141  RH  072%=      5-min Rain = 0
KCL1 110738Z 35009KT M10/M14 A3003 RMK A01 T10991141  RH  072%=      5-min Rain = 0
KCL1 110739Z 35011KT M10/M14 A3004 RMK A01 T11001141  RH  072%=      5-min Rain = 0
KCL1 110740Z 35010KT M10/M14 A3004 RMK A01 T11001141  RH  072%=      5-min Rain = 0
KCL1 110741Z 34011KT M10/M14 A3004 RMK A01 T11001141  RH  072%=      5-min Rain = 0
KCL1 110742Z 34010KT M10/M14 A3003 RMK A01 T11001141  RH  072%=      5-min Rain = 0
KCL1 110743Z 35009KT M10/M14 A3003 RMK A01 T11001141  RH  072%=      5-min Rain = 0
KCL1 110744Z 34011KT M10/M14 A3003 RMK A01 T11001141  RH  072%=      5-min Rain = 0
KCL1 110745Z 34014KT M10/M14 A3003 RMK A01 T11001141  RH  072%=      5-min Rain = 0
KCL1 110746Z 35011KT M10/M14 A3003 RMK A01 T11001141  RH  072%=      5-min Rain = 0
KCL1 110747Z 35011KT M10/M14 A3003 RMK A01 T11001141  RH  072%=      5-min Rain = 0
KCL1 110748Z 35011KT M10/M14 A3003 RMK A01 T11001141  RH  072%=      5-min Rain = 0
KCL1 110749Z 35009KT M10/M14 A3003 RMK A01 T11001141  RH  072%=      5-min Rain = 0
KCL1 110750Z 35012KT M10/M14 A3003 RMK A01 T11001140  RH  072%=      5-min Rain = 0
KCL1 110751Z 35011KT M10/M14 A3003 RMK A01 T11001141  RH  072%=      5-min Rain = 0
KCL1 110752Z 35013KT M10/M14 A3003 RMK A01 T11001141  RH  072%=      5-min Rain = 0
KCL1 110753Z 35012G17KT M10/M14 A3003 RMK A01 T11001140  RH  072%=      5-min Rain = 0
KCL1 110754Z 35015KT M10/M14 A3003 RMK A01 T11001140  RH  072%=      5-min Rain = 0
KCL1 110755Z 35013KT M10/M14 A3003 RMK A01 T11001140  RH  072%=      5-min Rain = 0
KCL1 110756Z 35012KT M10/M14 A3003 RMK A01 T11001140  RH  072%=      5-min Rain = 0
KCL1 110757Z 34015KT M10/M14 A3003 RMK A01 T11001140  RH  072%=      5-min Rain = 0
KCL1 110758Z 35016KT M10/M14 A3003 RMK A01 T11001140  RH  072%=      5-min Rain = 0
KCL1 110759Z 35012KT M10/M14 A3003 RMK A01 T11001140  RH  073%=      5-min Rain = 0
KCL1 110800Z 35011KT M10/M14 A3003 RMK A01 T11001140  RH  072%=      5-min Rain = 0
KCL1 110801Z 35012KT M10/M14 A3003 RMK A01 T11001140  RH  073%=      5-min Rain = 0
KCL1 110802Z 35011KT M10/M14 A3003 RMK A01 T11001140  RH  073%=      5-min Rain = 0
KCL1 110803Z 34012KT M10/M14 A3003 RMK A01 T11001140  RH  073%=      5-min Rain = 0
KCL1 110804Z 34012KT M10/M14 A3003 RMK A01 T11001140  RH  073%=      5-min Rain = 0
KCL1 110805Z 35012KT M10/M14 A3003 RMK A01 T11001140  RH  073%=      5-min Rain = 0
KCL1 110806Z 34014KT M10/M14 A3003 RMK A01 T11001140  RH  073%=      5-min Rain = 0
KCL1 110807Z 34013KT M10/M14 A3003 RMK A01 T11001140  RH  073%=      5-min Rain = 0
KCL1 110808Z 34011KT M10/M14 A3003 RMK A01 T11001140  RH  073%=      5-min Rain = 0
KCL1 110809Z 35011KT M10/M14 A3003 RMK A01 T11001140  RH  073%=      5-min Rain = 0
KCL1 110810Z 34012KT M10/M14 A3003 RMK A01 T11001139  RH  073%=      5-min Rain = 0
KCL1 110811Z 34012KT M10/M14 A3003 RMK A01 T11001140  RH  073%=      5-min Rain = 0
KCL1 110812Z 34011KT M10/M14 A3004 RMK A01 T11001140  RH  073%=      5-min Rain = 0
KCL1 110813Z 35011KT M10/M14 A3004 RMK A01 T11001139  RH  073%=      5-min Rain = 0
KCL1 110814Z 34013KT M10/M14 A3004 RMK A01 T11001139  RH  073%=      5-min Rain = 0
KCL1 110815Z 34011KT M10/M14 A3004 RMK A01 T11001139  RH  073%=      5-min Rain = 0
KCL1 110816Z 35011KT M10/M14 A3003 RMK A01 T11001139  RH  073%=      5-min Rain = 0
KCL1 110817Z 34010KT M10/M14 A3004 RMK A01 T11001139  RH  073%=      5-min Rain = 0
KCL1 110818Z 34011KT M10/M14 A3004 RMK A01 T11011139  RH  073%=      5-min Rain = 0
KCL1 110819Z 34012KT M10/M14 A3004 RMK A01 T11011140  RH  073%=      5-min Rain = 0
KCL1 110820Z 34013KT M10/M14 A3004 RMK A01 T11011139  RH  073%=      5-min Rain = 0
KCL1 110821Z 34012KT M10/M14 A3004 RMK A01 T11011139  RH  073%=      5-min Rain = 0
KCL1 110822Z 34011KT M10/M14 A3004 RMK A01 T11011139  RH  073%=      5-min Rain = 0
KCL1 110823Z 34013KT M10/M14 A3004 RMK A01 T11011139  RH  073%=      5-min Rain = 0
KCL1 110824Z 34012G17KT M10/M14 A3004 RMK A01 T11011139  RH  073%=      5-min Rain = 0
KCL1 110825Z 34010KT M10/M14 A3004 RMK A01 T11011139  RH  074%=      5-min Rain = 0
KCL1 110826Z 34011KT M10/M14 A3004 RMK A01 T11011139  RH  074%=      5-min Rain = 0
KCL1 110827Z 34013KT M10/M14 A3004 RMK A01 T11011139  RH  074%=      5-min Rain = 0
KCL1 110828Z 34012KT M10/M14 A3004 RMK A01 T11011139  RH  074%=      5-min Rain = 0
KCL1 110829Z 34011KT M10/M14 A3004 RMK A01 T11011139  RH  074%=      5-min Rain = 0
KCL1 110830Z 34012KT M10/M14 A3004 RMK A01 T11011139  RH  074%=      5-min Rain = 0
KCL1 110831Z 34014KT M10/M14 A3004 RMK A01 T11011139  RH  074%=      5-min Rain = 0
KCL1 110832Z 33013KT M10/M14 A3004 RMK A01 T11011138  RH  074%=      5-min Rain = 0
KCL1 110833Z 33013KT M10/M14 A3004 RMK A01 T11011139  RH  074%=      5-min Rain = 0
KCL1 110834Z 34013KT M10/M14 A3004 RMK A01 T11011139  RH  074%=      5-min Rain = 0
KCL1 110835Z 34013KT M10/M14 A3004 RMK A01 T11011139  RH  074%=      5-min Rain = 0
KCL1 110836Z 34014KT M10/M14 A3004 RMK A01 T11011138  RH  074%=      5-min Rain = 0
KCL1 110837Z 34015KT M10/M14 A3004 RMK A01 T11011138  RH  074%=      5-min Rain = 0
KCL1 110838Z 33013KT M10/M14 A3004 RMK A01 T11011139  RH  074%=      5-min Rain = 0
KCL1 110839Z 34016KT M10/M14 A3004 RMK A01 T11011138  RH  074%=      5-min Rain = 0
KCL1 110840Z 34012KT M10/M14 A3004 RMK A01 T11011138  RH  074%=      5-min Rain = 0
KCL1 110841Z 34013KT M10/M14 A3004 RMK A01 T11011138  RH  074%=      5-min Rain = 0
KCL1 110842Z 34011KT M10/M14 A3004 RMK A01 T11011138  RH  074%=      5-min Rain = 0
KCL1 110843Z 34011KT M10/M14 A3004 RMK A01 T11011138  RH  074%=      5-min Rain = 0
KCL1 110844Z 33013KT M10/M14 A3004 RMK A01 T11011139  RH  074%=      5-min Rain = 0
KCL1 110845Z 34013KT M10/M14 A3004 RMK A01 T11011139  RH  074%=      5-min Rain = 0
KCL1 110846Z 34014KT M10/M14 A3004 RMK A01 T11011139  RH  074%=      5-min Rain = 0
KCL1 110847Z 34014KT M10/M14 A3003 RMK A01 T11011138  RH  074%=      5-min Rain = 0
KCL1 110848Z 34014KT M10/M14 A3003 RMK A01 T11011139  RH  074%=      5-min Rain = 0
KCL1 110849Z 34012KT M10/M14 A3003 RMK A01 T11011138  RH  074%=      5-min Rain = 0
KCL1 110850Z 34012KT M10/M14 A3003 RMK A01 T11011138  RH  074%=      5-min Rain = 0
KCL1 110851Z 34012KT M10/M14 A3003 RMK A01 T11011138  RH  074%=      5-min Rain = 0
KCL1 110852Z 34011KT M10/M14 A3003 RMK A01 T11011138  RH  074%=      5-min Rain = 0
KCL1 110853Z 34012KT M10/M14 A3003 RMK A01 T11011138  RH  074%=      5-min Rain = 0
KCL1 110854Z 34011KT M10/M14 A3003 RMK A01 T11011138  RH  074%=      5-min Rain = 0
KCL1 110855Z 34012KT M10/M14 A3003 RMK A01 T11011138  RH  074%=      5-min Rain = 0
KCL1 110856Z 34012KT M10/M14 A3003 RMK A01 T11011138  RH  074%=      5-min Rain = 0
KCL1 110857Z 34011KT M10/M14 A3003 RMK A01 T11011138  RH  074%=      5-min Rain = 0
KCL1 110858Z 34010KT M10/M14 A3003 RMK A01 T11011138  RH  074%=      5-min Rain = 0
KCL1 110859Z 34009KT M10/M14 A3003 RMK A01 T11011138  RH  074%=      5-min Rain = 0
KCL1 110900Z 34008KT M10/M14 A3004 RMK A01 T11011138  RH  074%=      5-min Rain = 0
KCL1 110901Z 34008KT M10/M14 A3003 RMK A01 T11011138  RH  074%=      5-min Rain = 0
KCL1 110902Z 34010KT M10/M14 A3003 RMK A01 T11011138  RH  074%=      5-min Rain = 0
KCL1 110903Z 35011KT M10/M14 A3003 RMK A01 T11011138  RH  074%=      5-min Rain = 0
KCL1 110904Z 35009KT M10/M14 A3003 RMK A01 T11011138  RH  074%=      5-min Rain = 0
KCL1 110905Z 34012KT M10/M14 A3003 RMK A01 T11021138  RH  075%=      5-min Rain = 0
KCL1 110906Z 34013KT M10/M14 A3003 RMK A01 T11011138  RH  075%=      5-min Rain = 0
KCL1 110907Z 34014KT M10/M14 A3003 RMK A01 T11021138  RH  075%=      5-min Rain = 0
KCL1 110908Z 34013KT M10/M14 A3003 RMK A01 T11021138  RH  075%=      5-min Rain = 0
KCL1 110909Z 34014KT M10/M14 A3003 RMK A01 T11021138  RH  075%=      5-min Rain = 0
KCL1 110910Z 34015KT M10/M14 A3003 RMK A01 T11021138  RH  075%=      5-min Rain = 0
KCL1 110911Z 34013KT M10/M14 A3003 RMK A01 T11021138  RH  075%=      5-min Rain = 0
KCL1 110912Z 34013KT M10/M14 A3003 RMK A01 T11021138  RH  075%=      5-min Rain = 0
KCL1 110913Z 34012KT M10/M14 A3003 RMK A01 T11011138  RH  075%=      5-min Rain = 0
KCL1 110914Z 34012G17KT M10/M14 A3003 RMK A01 T11021138  RH  075%=      5-min Rain = 0
KCL1 110915Z 34014KT M10/M14 A3003 RMK A01 T11021138  RH  075%=      5-min Rain = 0
KCL1 110916Z 34013KT M10/M14 A3003 RMK A01 T11021138  RH  075%=      5-min Rain = 0
KCL1 110917Z 34012KT M10/M14 A3003 RMK A01 T11011138  RH  075%=      5-min Rain = 0
KCL1 110918Z 34011KT M10/M14 A3003 RMK A01 T11021138  RH  075%=      5-min Rain = 0
KCL1 110919Z 33012KT M10/M14 A3003 RMK A01 T11021138  RH  075%=      5-min Rain = 0
KCL1 110920Z 34012KT M10/M14 A3003 RMK A01 T11021138  RH  075%=      5-min Rain = 0
KCL1 110921Z 33010KT M10/M14 A3003 RMK A01 T11021138  RH  075%=      5-min Rain = 0
KCL1 110922Z 34011KT M10/M14 A3003 RMK A01 T11021138  RH  075%=      5-min Rain = 0
KCL1 110923Z 33010KT M10/M14 A3003 RMK A01 T11021138  RH  075%=      5-min Rain = 0
KCL1 110924Z 34008KT M10/M14 A3003 RMK A01 T11011137  RH  075%=      5-min Rain = 0
KCL1 110925Z 34008KT M10/M14 A3003 RMK A01 T11021138  RH  075%=      5-min Rain = 0
KCL1 110926Z 34009KT M10/M14 A3003 RMK A01 T11021138  RH  075%=      5-min Rain = 0
KCL1 110927Z 34009KT M10/M14 A3003 RMK A01 T11021138  RH  075%=      5-min Rain = 0
KCL1 110928Z 34010KT M10/M14 A3003 RMK A01 T11021138  RH  075%=      5-min Rain = 0
KCL1 110929Z 34011KT M10/M14 A3003 RMK A01 T11021138  RH  075%=      5-min Rain = 0
KCL1 110930Z 34010KT M10/M14 A3003 RMK A01 T11021138  RH  075%=      5-min Rain = 0
KCL1 110931Z 34011KT M10/M14 A3003 RMK A01 T11021138  RH  075%=      5-min Rain = 0
KCL1 110932Z 34009KT M10/M14 A3003 RMK A01 T11021138  RH  075%=      5-min Rain = 0
KCL1 110933Z 34009KT M10/M14 A3003 RMK A01 T11021138  RH  075%=      5-min Rain = 0
KCL1 110934Z 34010KT M10/M14 A3003 RMK A01 T11021138  RH  075%=      5-min Rain = 0
KCL1 110935Z 33011KT M10/M14 A3003 RMK A01 T11021137  RH  075%=      5-min Rain = 0
KCL1 110936Z 34013KT M10/M14 A3003 RMK A01 T11021138  RH  075%=      5-min Rain = 0
KCL1 110937Z 34012KT M10/M14 A3003 RMK A01 T11021138  RH  075%=      5-min Rain = 0
KCL1 110938Z 34010KT M10/M14 A3003 RMK A01 T11031138  RH  075%=      5-min Rain = 0
KCL1 110939Z 34007KT M10/M14 A3003 RMK A01 T11021138  RH  075%=      5-min Rain = 0
KCL1 110940Z 34008KT M10/M14 A3003 RMK A01 T11031138  RH  075%=      5-min Rain = 0
KCL1 110941Z 34010KT M10/M14 A3004 RMK A01 T11031138  RH  075%=      5-min Rain = 0
KCL1 110942Z 34010KT M10/M14 A3004 RMK A01 T11031138  RH  075%=      5-min Rain = 0
KCL1 110943Z 34010KT M10/M14 A3004 RMK A01 T11021138  RH  075%=      5-min Rain = 0
KCL1 110944Z 34010KT M10/M14 A3004 RMK A01 T11021137  RH  075%=      5-min Rain = 0
KCL1 110945Z 34008KT M10/M14 A3004 RMK A01 T11021138  RH  075%=      5-min Rain = 0
KCL1 110946Z 34009KT M10/M14 A3004 RMK A01 T11021137  RH  075%=      5-min Rain = 0
KCL1 110947Z 34009KT M10/M14 A3004 RMK A01 T11021137  RH  075%=      5-min Rain = 0
KCL1 110948Z 34010KT M10/M14 A3004 RMK A01 T11021138  RH  075%=      5-min Rain = 0
KCL1 110949Z 34010KT M10/M14 A3005 RMK A01 T11021137  RH  075%=      5-min Rain = 0
KCL1 110950Z 34012KT M10/M14 A3005 RMK A01 T11011137  RH  075%=      5-min Rain = 0
KCL1 110951Z 34010KT M10/M14 A3005 RMK A01 T11021137  RH  075%=      5-min Rain = 0
KCL1 110952Z 34008KT M10/M14 A3004 RMK A01 T11021137  RH  075%=      5-min Rain = 0
KCL1 110953Z 34011KT M10/M14 A3004 RMK A01 T11021137  RH  075%=      5-min Rain = 0
KCL1 110954Z 34010KT M10/M14 A3004 RMK A01 T11011137  RH  075%=      5-min Rain = 0
KCL1 110955Z 34009KT M10/M14 A3004 RMK A01 T11021137  RH  075%=      5-min Rain = 0
KCL1 110956Z 34009KT M10/M14 A3004 RMK A01 T11021137  RH  075%=      5-min Rain = 0
KCL1 110957Z 34008KT M10/M14 A3005 RMK A01 T11021137  RH  075%=      5-min Rain = 0
KCL1 110958Z 34011KT M10/M14 A3005 RMK A01 T11011136  RH  075%=      5-min Rain = 0
KCL1 110959Z 33011KT M10/M14 A3005 RMK A01 T11011137  RH  075%=      5-min Rain = 0
KCL1 111000Z 33011KT M10/M14 A3005 RMK A01 T11011137  RH  075%=      5-min Rain = 0
KCL1 111001Z 34010KT M10/M14 A3005 RMK A01 T11011137  RH  075%=      5-min Rain = 0
KCL1 111002Z 34011KT M10/M14 A3005 RMK A01 T11011136  RH  075%=      5-min Rain = 0
KCL1 111003Z 34012KT M10/M14 A3005 RMK A01 T11011137  RH  075%=      5-min Rain = 0
KCL1 111004Z 34011KT M10/M14 A3005 RMK A01 T11011137  RH  075%=      5-min Rain = 0
KCL1 111005Z 34013KT M10/M14 A3005 RMK A01 T11011137  RH  075%=      5-min Rain = 0
KCL1 111006Z 33010KT M10/M14 A3005 RMK A01 T11011136  RH  075%=      5-min Rain = 0
KCL1 111007Z 33012KT M10/M14 A3005 RMK A01 T11011136  RH  075%=      5-min Rain = 0
KCL1 111008Z 33014KT M10/M14 A3005 RMK A01 T11001136  RH  075%=      5-min Rain = 0
KCL1 111009Z 33013KT M10/M14 A3005 RMK A01 T11001136  RH  075%=      5-min Rain = 0
KCL1 111010Z 33013KT M10/M14 A3005 RMK A01 T11001136  RH  075%=      5-min Rain = 0
KCL1 111011Z 33012KT M10/M14 A3005 RMK A01 T11001137  RH  075%=      5-min Rain = 0
KCL1 111012Z 34013KT M10/M14 A3005 RMK A01 T11001137  RH  075%=      5-min Rain = 0
KCL1 111013Z 34013KT M10/M14 A3005 RMK A01 T11001136  RH  075%=      5-min Rain = 0
KCL1 111014Z 33016KT M10/M14 A3005 RMK A01 T11001137  RH  075%=      5-min Rain = 0
KCL1 111015Z 33015KT M10/M14 A3005 RMK A01 T11001137  RH  074%=      5-min Rain = 0
KCL1 111016Z 34012KT M10/M14 A3005 RMK A01 T11001137  RH  074%=      5-min Rain = 0
KCL1 111017Z 33013KT M10/M14 A3005 RMK A01 T11001137  RH  074%=      5-min Rain = 0
KCL1 111018Z 33015KT M10/M14 A3005 RMK A01 T11001138  RH  074%=      5-min Rain = 0
KCL1 111019Z 34012KT M10/M14 A3005 RMK A01 T11001138  RH  074%=      5-min Rain = 0
KCL1 111020Z 34014KT M10/M14 A3004 RMK A01 T11001138  RH  074%=      5-min Rain = 0
KCL1 111021Z 34016KT M10/M14 A3004 RMK A01 T11001137  RH  074%=      5-min Rain = 0
KCL1 111022Z 34014KT M10/M14 A3004 RMK A01 T11001138  RH  074%=      5-min Rain = 0
KCL1 111023Z 34014KT M10/M14 A3004 RMK A01 T11001138  RH  074%=      5-min Rain = 0
KCL1 111024Z 34012KT M10/M14 A3005 RMK A01 T11001138  RH  074%=      5-min Rain = 0
KCL1 111025Z 34013KT M10/M14 A3005 RMK A01 T11001138  RH  074%=      5-min Rain = 0
KCL1 111026Z 34013KT M10/M14 A3005 RMK A01 T10991138  RH  074%=      5-min Rain = 0
KCL1 111027Z 34014KT M10/M14 A3005 RMK A01 T10991138  RH  073%=      5-min Rain = 0
KCL1 111028Z 33011KT M10/M14 A3005 RMK A01 T10991138  RH  073%=      5-min Rain = 0
KCL1 111029Z 34014KT M10/M14 A3005 RMK A01 T10991138  RH  073%=      5-min Rain = 0
KCL1 111030Z 34014KT M10/M14 A3005 RMK A01 T10991138  RH  073%=      5-min Rain = 0
KCL1 111031Z 34015KT M10/M14 A3005 RMK A01 T10991138  RH  073%=      5-min Rain = 0
KCL1 111032Z 34012KT M10/M14 A3005 RMK A01 T10991138  RH  073%=      5-min Rain = 0
KCL1 111033Z 34010KT M10/M14 A3005 RMK A01 T10991138  RH  073%=      5-min Rain = 0
KCL1 111034Z 34012KT M10/M14 A3005 RMK A01 T10991138  RH  073%=      5-min Rain = 0
KCL1 111035Z 34012KT M10/M14 A3005 RMK A01 T10991138  RH  073%=      5-min Rain = 0
KCL1 111036Z 34010KT M10/M14 A3005 RMK A01 T10991139  RH  073%=      5-min Rain = 0
KCL1 111037Z 34009KT M10/M14 A3005 RMK A01 T10991139  RH  073%=      5-min Rain = 0
KCL1 111038Z 34009G14KT M10/M14 A3005 RMK A01 T10991139  RH  073%=      5-min Rain = 0
KCL1 111039Z 34010KT M10/M14 A3005 RMK A01 T10991139  RH  073%=      5-min Rain = 0
KCL1 111040Z 34011KT M10/M14 A3005 RMK A01 T10991139  RH  073%=      5-min Rain = 0
KCL1 111041Z 34011KT M10/M14 A3006 RMK A01 T11001139  RH  073%=      5-min Rain = 0
KCL1 111042Z 34013KT M10/M14 A3006 RMK A01 T10991139  RH  073%=      5-min Rain = 0
KCL1 111043Z 35013KT M10/M14 A3006 RMK A01 T10991139  RH  073%=      5-min Rain = 0
KCL1 111044Z 34011KT M10/M14 A3006 RMK A01 T10991139  RH  073%=      5-min Rain = 0
KCL1 111045Z 34008KT M10/M14 A3006 RMK A01 T10991139  RH  073%=      5-min Rain = 0
KCL1 111046Z 34010KT M10/M14 A3006 RMK A01 T10991139  RH  073%=      5-min Rain = 0
KCL1 111047Z 34009G14KT M10/M14 A3006 RMK A01 T10991139  RH  073%=      5-min Rain = 0
KCL1 111048Z 34012KT M10/M14 A3006 RMK A01 T10991139  RH  073%=      5-min Rain = 0
KCL1 111049Z 34012KT M10/M14 A3006 RMK A01 T10991139  RH  072%=      5-min Rain = 0
KCL1 111050Z 34011KT M10/M14 A3006 RMK A01 T10991139  RH  072%=      5-min Rain = 0
KCL1 111051Z 34010KT M10/M14 A3006 RMK A01 T10991140  RH  072%=      5-min Rain = 0
KCL1 111052Z 34013KT M10/M14 A3006 RMK A01 T10991140  RH  072%=      5-min Rain = 0
KCL1 111053Z 34014KT M10/M14 A3006 RMK A01 T10991139  RH  072%=      5-min Rain = 0
KCL1 111054Z 34011KT M10/M14 A3006 RMK A01 T10991139  RH  072%=      5-min Rain = 0
KCL1 111055Z 34008KT M10/M14 A3006 RMK A01 T10991140  RH  072%=      5-min Rain = 0
KCL1 111056Z 33013KT M10/M14 A3006 RMK A01 T10991139  RH  072%=      5-min Rain = 0
KCL1 111057Z 34013KT M10/M14 A3006 RMK A01 T10991139  RH  072%=      5-min Rain = 0
KCL1 111058Z 33011KT M10/M14 A3007 RMK A01 T10991139  RH  072%=      5-min Rain = 0
KCL1 111059Z 34011KT M10/M14 A3007 RMK A01 T10991139  RH  072%=      5-min Rain = 0
KCL1 111100Z 34009KT M10/M14 A3007 RMK A01 T10981139  RH  072%=      5-min Rain = 0
KCL1 111101Z 33009KT M10/M14 A3007 RMK A01 T10981139  RH  072%=      5-min Rain = 0
KCL1 111102Z 33009KT M10/M14 A3007 RMK A01 T10981139  RH  072%=      5-min Rain = 0
KCL1 111103Z 33012KT M10/M14 A3007 RMK A01 T10981139  RH  072%=      5-min Rain = 0
KCL1 111104Z 33010KT M10/M14 A3007 RMK A01 T10981138  RH  072%=      5-min Rain = 0
KCL1 111105Z 33010KT M10/M14 A3007 RMK A01 T10981138  RH  072%=      5-min Rain = 0
KCL1 111106Z 33012KT M10/M14 A3007 RMK A01 T10981139  RH  072%=      5-min Rain = 0
KCL1 111107Z 33012KT M10/M14 A3007 RMK A01 T10981139  RH  072%=      5-min Rain = 0
KCL1 111108Z 33011KT M10/M14 A3007 RMK A01 T10981138  RH  072%=      5-min Rain = 0
KCL1 111109Z 33015KT M10/M14 A3007 RMK A01 T10971138  RH  072%=      5-min Rain = 0
KCL1 111110Z 33013KT M10/M14 A3007 RMK A01 T10981138  RH  072%=      5-min Rain = 0
KCL1 111111Z 33015KT M10/M14 A3007 RMK A01 T10981138  RH  072%=      5-min Rain = 0
KCL1 111112Z 33014KT M10/M14 A3006 RMK A01 T10971138  RH  072%=      5-min Rain = 0
KCL1 111113Z 33012KT M10/M14 A3006 RMK A01 T10981139  RH  072%=      5-min Rain = 0
KCL1 111114Z 33011KT M10/M14 A3006 RMK A01 T10971138  RH  072%=      5-min Rain = 0
KCL1 111115Z 34012KT M10/M14 A3006 RMK A01 T10971138  RH  072%=      5-min Rain = 0
KCL1 111116Z 34011KT M10/M14 A3006 RMK A01 T10971138  RH  072%=      5-min Rain = 0
KCL1 111117Z 34009KT M10/M14 A3007 RMK A01 T10971138  RH  072%=      5-min Rain = 0
KCL1 111118Z 33010KT M10/M14 A3007 RMK A01 T10971138  RH  072%=      5-min Rain = 0
KCL1 111119Z 33011KT M10/M14 A3007 RMK A01 T10961138  RH  072%=      5-min Rain = 0
KCL1 111120Z 32009KT M10/M14 A3007 RMK A01 T10971138  RH  072%=      5-min Rain = 0
KCL1 111121Z 33009KT M10/M14 A3007 RMK A01 T10971138  RH  072%=      5-min Rain = 0
KCL1 111122Z 32009KT M10/M14 A3007 RMK A01 T10971137  RH  072%=      5-min Rain = 0
KCL1 111123Z 33009KT M10/M14 A3007 RMK A01 T10961137  RH  072%=      5-min Rain = 0
KCL1 111124Z 33010KT M10/M14 A3007 RMK A01 T10971138  RH  072%=      5-min Rain = 0
KCL1 111125Z 33011KT M10/M14 A3007 RMK A01 T10971138  RH  072%=      5-min Rain = 0
KCL1 111126Z 34011KT M10/M14 A3007 RMK A01 T10971138  RH  072%=      5-min Rain = 0
KCL1 111127Z 34009KT M10/M14 A3007 RMK A01 T10961137  RH  072%=      5-min Rain = 0
KCL1 111128Z 33010KT M10/M14 A3007 RMK A01 T10961137  RH  072%=      5-min Rain = 0
KCL1 111129Z 34012KT M10/M14 A3007 RMK A01 T10961137  RH  072%=      5-min Rain = 0
KCL1 111130Z 33012KT M10/M14 A3007 RMK A01 T10961137  RH  072%=      5-min Rain = 0
KCL1 111131Z 33012KT M10/M14 A3007 RMK A01 T10961137  RH  072%=      5-min Rain = 0
KCL1 111132Z 34013KT M10/M14 A3007 RMK A01 T10961137  RH  072%=      5-min Rain = 0
KCL1 111133Z 33011KT M10/M14 A3007 RMK A01 T10961137  RH  072%=      5-min Rain = 0
KCL1 111134Z 34010KT M10/M14 A3007 RMK A01 T10951137  RH  072%=      5-min Rain = 0
KCL1 111135Z 33013KT M10/M14 A3007 RMK A01 T10951137  RH  072%=      5-min Rain = 0
KCL1 111136Z 33012KT M10/M14 A3007 RMK A01 T10951137  RH  071%=      5-min Rain = 0
KCL1 111137Z 34010KT M10/M14 A3007 RMK A01 T10951137  RH  071%=      5-min Rain = 0
KCL1 111138Z 34012KT M10/M14 A3007 RMK A01 T10951137  RH  071%=      5-min Rain = 0
KCL1 111139Z 34010KT M10/M14 A3007 RMK A01 T10951137  RH  071%=      5-min Rain = 0
KCL1 111140Z 34011KT M10/M14 A3007 RMK A01 T10951137  RH  071%=      5-min Rain = 0
KCL1 111141Z 34009KT M10/M14 A3007 RMK A01 T10951137  RH  071%=      5-min Rain = 0
KCL1 111142Z 34011KT M10/M14 A3007 RMK A01 T10951137  RH  071%=      5-min Rain = 0
KCL1 111143Z 33012KT M10/M14 A3007 RMK A01 T10951137  RH  071%=      5-min Rain = 0
KCL1 111144Z 34010G15KT M10/M14 A3007 RMK A01 T10951137  RH  071%=      5-min Rain = 0
KCL1 111145Z 34010KT M10/M14 A3007 RMK A01 T10951137  RH  071%=      5-min Rain = 0
KCL1 111146Z 34009KT M10/M14 A3007 RMK A01 T10951137  RH  071%=      5-min Rain = 0
KCL1 111147Z 34012KT M10/M14 A3007 RMK A01 T10951137  RH  071%=      5-min Rain = 0
KCL1 111148Z 34012KT M09/M14 A3007 RMK A01 T10941137  RH  071%=      5-min Rain = 0
KCL1 111149Z 34011KT M09/M14 A3007 RMK A01 T10941137  RH  071%=      5-min Rain = 0
KCL1 111150Z 33010KT M09/M14 A3007 RMK A01 T10941137  RH  071%=      5-min Rain = 0
KCL1 111151Z 34012KT M09/M14 A3007 RMK A01 T10941137  RH  071%=      5-min Rain = 0
KCL1 111152Z 34012KT M09/M14 A3007 RMK A01 T10941137  RH  071%=      5-min Rain = 0
KCL1 111153Z 34013KT M09/M14 A3007 RMK A01 T10941137  RH  071%=      5-min Rain = 0
KCL1 111154Z 34012KT M09/M14 A3007 RMK A01 T10941137  RH  071%=      5-min Rain = 0
KCL1 111155Z 33011KT M09/M14 A3007 RMK A01 T10941138  RH  071%=      5-min Rain = 0
KCL1 111156Z 33013KT M09/M14 A3007 RMK A01 T10941137  RH  071%=      5-min Rain = 0
KCL1 111157Z 33011KT M09/M14 A3007 RMK A01 T10941137  RH  071%=      5-min Rain = 0
KCL1 111158Z 33012KT M09/M14 A3007 RMK A01 T10941137  RH  071%=      5-min Rain = 0
KCL1 111159Z 33013KT M09/M14 A3007 RMK A01 T10941138  RH  071%=      5-min Rain = 0
KCL1 111200Z 33011KT M09/M14 A3007 RMK A01 T10941137  RH  071%=      5-min Rain = 0
KCL1 111201Z 34011KT M09/M14 A3007 RMK A01 T10941137  RH  071%=      5-min Rain = 0
KCL1 111202Z 33009KT M09/M14 A3007 RMK A01 T10941137  RH  071%=      5-min Rain = 0
KCL1 111203Z 33008KT M09/M14 A3007 RMK A01 T10941137  RH  071%=      5-min Rain = 0
KCL1 111204Z 34010KT M09/M14 A3007 RMK A01 T10941137  RH  071%=      5-min Rain = 0
KCL1 111205Z 34012KT M09/M14 A3008 RMK A01 T10941137  RH  071%=      5-min Rain = 0
KCL1 111206Z 33011KT M09/M14 A3008 RMK A01 T10941137  RH  071%=      5-min Rain = 0
KCL1 111207Z 34008KT M09/M14 A3008 RMK A01 T10941138  RH  071%=      5-min Rain = 0
KCL1 111208Z 33010KT M09/M14 A3008 RMK A01 T10941137  RH  071%=      5-min Rain = 0
KCL1 111209Z 33009KT M09/M14 A3008 RMK A01 T10941138  RH  071%=      5-min Rain = 0
KCL1 111210Z 34009KT M09/M14 A3008 RMK A01 T10941138  RH  071%=      5-min Rain = 0
KCL1 111211Z 33007KT M09/M14 A3008 RMK A01 T10941137  RH  071%=      5-min Rain = 0
KCL1 111212Z 33011KT M09/M14 A3008 RMK A01 T10941137  RH  071%=      5-min Rain = 0
KCL1 111213Z 33012KT M09/M14 A3008 RMK A01 T10941137  RH  071%=      5-min Rain = 0
KCL1 111214Z 33009KT M09/M14 A3008 RMK A01 T10941137  RH  071%=      5-min Rain = 0
KCL1 111215Z 32008KT M09/M14 A3008 RMK A01 T10941137  RH  071%=      5-min Rain = 0
KCL1 111216Z 34009KT M09/M14 A3008 RMK A01 T10941137  RH  071%=      5-min Rain = 0
KCL1 111217Z 34008KT M09/M14 A3008 RMK A01 T10941137  RH  071%=      5-min Rain = 0
KCL1 111218Z 33008KT M09/M14 A3008 RMK A01 T10941137  RH  071%=      5-min Rain = 0
KCL1 111219Z 33007KT M09/M14 A3008 RMK A01 T10941137  RH  071%=      5-min Rain = 0
KCL1 111220Z 33009KT M09/M14 A3008 RMK A01 T10941137  RH  071%=      5-min Rain = 0
KCL1 111221Z 33007KT M09/M14 A3008 RMK A01 T10941137  RH  071%=      5-min Rain = 0
KCL1 111222Z 33009KT M09/M14 A3008 RMK A01 T10941137  RH  071%=      5-min Rain = 0
KCL1 111223Z 33007KT M09/M14 A3008 RMK A01 T10941137  RH  071%=      5-min Rain = 0
KCL1 111224Z 33008KT M09/M14 A3008 RMK A01 T10941137  RH  071%=      5-min Rain = 0
KCL1 111225Z 34008KT M09/M14 A3009 RMK A01 T10941137  RH  071%=      5-min Rain = 0
KCL1 111226Z 33011KT M09/M14 A3009 RMK A01 T10941137  RH  071%=      5-min Rain = 0
KCL1 111227Z 33010KT M09/M14 A3009 RMK A01 T10941137  RH  071%=      5-min Rain = 0
KCL1 111228Z 34008KT M09/M14 A3009 RMK A01 T10931136  RH  071%=      5-min Rain = 0
KCL1 111229Z 34008KT M09/M14 A3009 RMK A01 T10931136  RH  071%=      5-min Rain = 0
KCL1 111230Z 33008KT M09/M14 A3009 RMK A01 T10931136  RH  071%=      5-min Rain = 0
KCL1 111231Z 33007KT M09/M14 A3009 RMK A01 T10931136  RH  071%=      5-min Rain = 0
KCL1 111232Z 33008KT M09/M14 A3009 RMK A01 T10931136  RH  071%=      5-min Rain = 0
KCL1 111233Z 33008KT M09/M14 A3009 RMK A01 T10931136  RH  071%=      5-min Rain = 0
KCL1 111234Z 33010KT M09/M14 A3009 RMK A01 T10931136  RH  071%=      5-min Rain = 0
KCL1 111235Z 33009KT M09/M14 A3009 RMK A01 T10931136  RH  071%=      5-min Rain = 0
KCL1 111236Z 33009KT M09/M14 A3009 RMK A01 T10921136  RH  071%=      5-min Rain = 0
KCL1 111237Z 34008KT M09/M14 A3009 RMK A01 T10921136  RH  071%=      5-min Rain = 0
KCL1 111238Z 34009KT M09/M14 A3009 RMK A01 T10921136  RH  071%=      5-min Rain = 0
KCL1 111239Z 33010KT M09/M14 A3009 RMK A01 T10921135  RH  071%=      5-min Rain = 0
KCL1 111240Z 33009KT M09/M14 A3009 RMK A01 T10921135  RH  071%=      5-min Rain = 0
KCL1 111241Z 33010KT M09/M14 A301 RMK A01 T10921135  RH  071%=      5-min Rain = 0
KCL1 111242Z 33010KT M09/M14 A301 RMK A01 T10911135  RH  070%=      5-min Rain = 0
KCL1 111243Z 33010KT M09/M14 A301 RMK A01 T10911135  RH  070%=      5-min Rain = 0
KCL1 111244Z 33009KT M09/M14 A301 RMK A01 T10911135  RH  070%=      5-min Rain = 0
KCL1 111245Z 33008KT M09/M14 A301 RMK A01 T10901135  RH  070%=      5-min Rain = 0
KCL1 111246Z 33009KT M09/M14 A301 RMK A01 T10901135  RH  070%=      5-min Rain = 0
KCL1 111247Z 33011KT M09/M14 A301 RMK A01 T10901135  RH  070%=      5-min Rain = 0
KCL1 111248Z 32009KT M09/M14 A301 RMK A01 T10901135  RH  070%=      5-min Rain = 0
KCL1 111249Z 33009KT M09/M14 A301 RMK A01 T10901135  RH  070%=      5-min Rain = 0
KCL1 111250Z 33009KT M09/M14 A301 RMK A01 T10901135  RH  070%=      5-min Rain = 0
KCL1 111251Z 33009KT M09/M14 A3011 RMK A01 T10901135  RH  070%=      5-min Rain = 0
KCL1 111252Z 32010KT M09/M14 A3011 RMK A01 T10901135  RH  070%=      5-min Rain = 0
KCL1 111253Z 33010KT M09/M14 A3011 RMK A01 T10901135  RH  070%=      5-min Rain = 0
KCL1 111254Z 33010KT M09/M14 A3011 RMK A01 T10901135  RH  070%=      5-min Rain = 0
KCL1 111255Z 33010KT M09/M14 A3011 RMK A01 T10901135  RH  070%=      5-min Rain = 0
KCL1 111256Z 33009KT M09/M14 A3011 RMK A01 T10901135  RH  070%=      5-min Rain = 0
KCL1 111257Z 32008KT M09/M13 A3011 RMK A01 T10891134  RH  070%=      5-min Rain = 0
KCL1 111258Z 32009KT M09/M14 A3011 RMK A01 T10891135  RH  070%=      5-min Rain = 0
KCL1 111259Z 32011KT M09/M14 A3011 RMK A01 T10891135  RH  070%=      5-min Rain = 0
KCL1 111300Z 32011KT M09/M14 A3011 RMK A01 T10891135  RH  070%=      5-min Rain = 0
KCL1 111301Z 32012KT M09/M14 A3011 RMK A01 T10891135  RH  070%=      5-min Rain = 0
KCL1 111302Z 32010KT M09/M14 A3011 RMK A01 T10901135  RH  070%=      5-min Rain = 0
KCL1 111303Z 33009KT M09/M14 A3011 RMK A01 T10901135  RH  070%=      5-min Rain = 0
KCL1 111304Z 32010KT M09/M14 A3011 RMK A01 T10891135  RH  070%=      5-min Rain = 0
KCL1 111305Z 32011KT M09/M14 A3011 RMK A01 T10901135  RH  070%=      5-min Rain = 0
KCL1 111306Z 33012KT M09/M14 A3011 RMK A01 T10901135  RH  070%=      5-min Rain = 0
KCL1 111307Z 32012KT M09/M14 A3011 RMK A01 T10891135  RH  069%=      5-min Rain = 0
KCL1 111308Z 32013KT M09/M14 A3011 RMK A01 T10891135  RH  069%=      5-min Rain = 0
KCL1 111309Z 32013KT M09/M14 A3011 RMK A01 T10891135  RH  069%=      5-min Rain = 0
KCL1 111310Z 32011KT M09/M14 A3011 RMK A01 T10891135  RH  069%=      5-min Rain = 0
KCL1 111311Z 32011KT M09/M14 A3011 RMK A01 T10891135  RH  069%=      5-min Rain = 0
KCL1 111312Z 32011G17KT M09/M14 A3012 RMK A01 T10891135  RH  069%=      5-min Rain = 0
KCL1 111313Z 32013KT M09/M14 A3011 RMK A01 T10891135  RH  069%=      5-min Rain = 0
KCL1 111314Z 32010KT M09/M14 A3012 RMK A01 T10891135  RH  069%=      5-min Rain = 0
KCL1 111315Z 32013KT M09/M14 A3012 RMK A01 T10891135  RH  069%=      5-min Rain = 0
KCL1 111316Z 32010KT M09/M14 A3012 RMK A01 T10891135  RH  069%=      5-min Rain = 0
KCL1 111317Z 31011KT M09/M14 A3012 RMK A01 T10891135  RH  069%=      5-min Rain = 0
KCL1 111318Z 32012KT M09/M14 A3012 RMK A01 T10891135  RH  069%=      5-min Rain = 0
KCL1 111319Z 33010KT M09/M14 A3012 RMK A01 T10881135  RH  069%=      5-min Rain = 0
KCL1 111320Z 31009KT M09/M14 A3012 RMK A01 T10881135  RH  069%=      5-min Rain = 0
KCL1 111321Z 32012KT M09/M14 A3012 RMK A01 T10881135  RH  069%=      5-min Rain = 0
KCL1 111322Z 32011KT M09/M14 A3012 RMK A01 T10881135  RH  069%=      5-min Rain = 0
KCL1 111323Z 32010KT M09/M14 A3012 RMK A01 T10881135  RH  069%=      5-min Rain = 0
KCL1 111324Z 31010KT M09/M14 A3012 RMK A01 T10881135  RH  069%=      5-min Rain = 0
KCL1 111325Z 32011KT M09/M14 A3012 RMK A01 T10881135  RH  069%=      5-min Rain = 0
KCL1 111326Z 32011KT M09/M14 A3012 RMK A01 T10881135  RH  069%=      5-min Rain = 0
KCL1 111327Z 31009KT M09/M14 A3012 RMK A01 T10871135  RH  068%=      5-min Rain = 0
KCL1 111328Z 31008KT M09/M14 A3012 RMK A01 T10871135  RH  068%=      5-min Rain = 0
KCL1 111329Z 32010KT M09/M14 A3012 RMK A01 T10881135  RH  068%=      5-min Rain = 0
KCL1 111330Z 32009KT M09/M14 A3011 RMK A01 T10871135  RH  068%=      5-min Rain = 0
KCL1 111331Z 33011KT M09/M14 A3011 RMK A01 T10871135  RH  068%=      5-min Rain = 0
KCL1 111332Z 32010KT M09/M14 A3011 RMK A01 T10871136  RH  068%=      5-min Rain = 0
KCL1 111333Z 32010KT M09/M14 A3011 RMK A01 T10871136  RH  068%=      5-min Rain = 0
KCL1 111334Z 32011KT M09/M14 A3012 RMK A01 T10871135  RH  068%=      5-min Rain = 0
KCL1 111335Z 32011KT M09/M14 A3012 RMK A01 T10871135  RH  068%=      5-min Rain = 0
KCL1 111336Z 32010KT M09/M14 A3012 RMK A01 T10871135  RH  068%=      5-min Rain = 0
KCL1 111337Z 32008KT M09/M14 A3012 RMK A01 T10871135  RH  068%=      5-min Rain = 0
KCL1 111338Z 32012KT M09/M14 A3012 RMK A01 T10871135  RH  068%=      5-min Rain = 0
KCL1 111339Z 33009KT M09/M14 A3012 RMK A01 T10871135  RH  068%=      5-min Rain = 0
KCL1 111340Z 32010KT M09/M14 A3012 RMK A01 T10871135  RH  068%=      5-min Rain = 0
KCL1 111341Z 32011KT M09/M13 A3012 RMK A01 T10861134  RH  068%=      5-min Rain = 0
KCL1 111342Z 32010KT M09/M13 A3012 RMK A01 T10861134  RH  068%=      5-min Rain = 0
KCL1 111343Z 32012KT M09/M14 A3012 RMK A01 T10861135  RH  068%=      5-min Rain = 0
KCL1 111344Z 32011KT M09/M13 A3012 RMK A01 T10861134  RH  068%=      5-min Rain = 0
KCL1 111345Z 32014KT M09/M13 A3012 RMK A01 T10851134  RH  068%=      5-min Rain = 0
KCL1 111346Z 33011KT M09/M13 A3012 RMK A01 T10851134  RH  068%=      5-min Rain = 0
KCL1 111347Z 33010KT M09/M13 A3012 RMK A01 T10851134  RH  068%=      5-min Rain = 0
KCL1 111348Z 33011KT M09/M13 A3012 RMK A01 T10851134  RH  068%=      5-min Rain = 0
KCL1 111349Z 32013KT M08/M13 A3012 RMK A01 T10841133  RH  068%=      5-min Rain = 0
KCL1 111350Z 32011KT M08/M13 A3012 RMK A01 T10841133  RH  068%=      5-min Rain = 0
KCL1 111351Z 33010KT M08/M13 A3012 RMK A01 T10841133  RH  068%=      5-min Rain = 0
KCL1 111352Z 32011KT M08/M13 A3012 RMK A01 T10841133  RH  068%=      5-min Rain = 0
KCL1 111353Z 33013KT M08/M13 A3012 RMK A01 T10831132  RH  068%=      5-min Rain = 0
KCL1 111354Z 33011KT M08/M13 A3012 RMK A01 T10831132  RH  068%=      5-min Rain = 0
KCL1 111355Z 32014KT M08/M13 A3012 RMK A01 T10831132  RH  068%=      5-min Rain = 0
KCL1 111356Z 32013KT M08/M13 A3012 RMK A01 T10821132  RH  068%=      5-min Rain = 0
KCL1 111357Z 32010KT M08/M13 A3012 RMK A01 T10821131  RH  068%=      5-min Rain = 0
KCL1 111358Z 32012KT M08/M13 A3012 RMK A01 T10821132  RH  068%=      5-min Rain = 0
KCL1 111359Z 32012KT M08/M13 A3012 RMK A01 T10831132  RH  067%=      5-min Rain = 0
KCL1 111400Z 32011KT M08/M13 A3013 RMK A01 T10821132  RH  067%=      5-min Rain = 0
KCL1 111401Z 32012KT M08/M13 A3012 RMK A01 T10821132  RH  067%=      5-min Rain = 0
KCL1 111402Z 32014KT M08/M13 A3012 RMK A01 T10821132  RH  067%=      5-min Rain = 0
KCL1 111403Z 33013KT M08/M13 A3012 RMK A01 T10821132  RH  067%=      5-min Rain = 0
KCL1 111404Z 32015KT M08/M13 A3013 RMK A01 T10821131  RH  067%=      5-min Rain = 0
KCL1 111405Z 32013KT M08/M13 A3013 RMK A01 T10811131  RH  067%=      5-min Rain = 0
KCL1 111406Z 33014KT M08/M13 A3013 RMK A01 T10821131  RH  067%=      5-min Rain = 0
KCL1 111407Z 33013KT M08/M13 A3013 RMK A01 T10821131  RH  067%=      5-min Rain = 0
KCL1 111408Z 32012KT M08/M13 A3013 RMK A01 T10811131  RH  067%=      5-min Rain = 0
KCL1 111409Z 32013KT M08/M13 A3013 RMK A01 T10801130  RH  067%=      5-min Rain = 0
KCL1 111410Z 33012G17KT M08/M13 A3013 RMK A01 T10801130  RH  067%=      5-min Rain = 0
KCL1 111411Z 32013G18KT M08/M13 A3013 RMK A01 T10801130  RH  067%=      5-min Rain = 0
KCL1 111412Z 32016KT M08/M13 A3013 RMK A01 T10801130  RH  067%=      5-min Rain = 0
KCL1 111413Z 32014KT M08/M13 A3013 RMK A01 T10801130  RH  067%=      5-min Rain = 0
KCL1 111414Z 32013KT M08/M13 A3013 RMK A01 T10801130  RH  067%=      5-min Rain = 0
KCL1 111415Z 32011KT M08/M13 A3013 RMK A01 T10791129  RH  067%=      5-min Rain = 0
KCL1 111416Z 33013KT M08/M13 A3013 RMK A01 T10781129  RH  067%=      5-min Rain = 0
KCL1 111417Z 32010KT M08/M13 A3013 RMK A01 T10781129  RH  067%=      5-min Rain = 0
KCL1 111418Z 32012KT M08/M13 A3013 RMK A01 T10781129  RH  067%=      5-min Rain = 0
KCL1 111419Z 33014KT M08/M13 A3013 RMK A01 T10781129  RH  067%=      5-min Rain = 0
KCL1 111420Z 33011KT M08/M13 A3013 RMK A01 T10771129  RH  067%=      5-min Rain = 0
KCL1 111421Z 32013KT M08/M13 A3013 RMK A01 T10771128  RH  067%=      5-min Rain = 0
KCL1 111422Z 32012KT M08/M13 A3013 RMK A01 T10771128  RH  067%=      5-min Rain = 0
KCL1 111423Z 33013KT M08/M13 A3013 RMK A01 T10771128  RH  067%=      5-min Rain = 0
KCL1 111424Z 34013KT M08/M13 A3013 RMK A01 T10761128  RH  067%=      5-min Rain = 0
KCL1 111425Z 33013KT M08/M13 A3012 RMK A01 T10761128  RH  066%=      5-min Rain = 0
KCL1 111426Z 32015KT M08/M13 A3012 RMK A01 T10761128  RH  066%=      5-min Rain = 0
KCL1 111427Z 33014KT M08/M13 A3013 RMK A01 T10761128  RH  066%=      5-min Rain = 0
KCL1 111428Z 33014KT M08/M13 A3013 RMK A01 T10751127  RH  066%=      5-min Rain = 0
KCL1 111429Z 33015KT M08/M13 A3013 RMK A01 T10751127  RH  066%=      5-min Rain = 0
KCL1 111430Z 33012KT M08/M13 A3013 RMK A01 T10751127  RH  066%=      5-min Rain = 0
KCL1 111431Z 33013G19KT M08/M13 A3013 RMK A01 T10751128  RH  066%=      5-min Rain = 0
KCL1 111432Z 33012KT M08/M13 A3013 RMK A01 T10751127  RH  066%=      5-min Rain = 0
KCL1 111433Z 32013KT M07/M13 A3013 RMK A01 T10741127  RH  066%=      5-min Rain = 0
KCL1 111434Z 32013KT M07/M13 A3013 RMK A01 T10741127  RH  066%=      5-min Rain = 0
KCL1 111435Z 33014KT M07/M13 A3013 RMK A01 T10741127  RH  066%=      5-min Rain = 0
KCL1 111436Z 33014KT M07/M13 A3013 RMK A01 T10731126  RH  066%=      5-min Rain = 0
KCL1 111437Z 32010KT M07/M13 A3014 RMK A01 T10731126  RH  066%=      5-min Rain = 0
KCL1 111438Z 32012KT M07/M13 A3013 RMK A01 T10731126  RH  066%=      5-min Rain = 0
KCL1 111439Z 33013KT M07/M13 A3013 RMK A01 T10721126  RH  066%=      5-min Rain = 0
KCL1 111440Z 33016KT M07/M13 A3013 RMK A01 T10721126  RH  066%=      5-min Rain = 0
KCL1 111441Z 33012KT M07/M13 A3013 RMK A01 T10721126  RH  065%=      5-min Rain = 0
KCL1 111442Z 33011KT M07/M13 A3013 RMK A01 T10711125  RH  065%=      5-min Rain = 0
KCL1 111443Z 32012KT M07/M13 A3013 RMK A01 T10711125  RH  065%=      5-min Rain = 0
KCL1 111444Z 33011KT M07/M13 A3014 RMK A01 T10701125  RH  065%=      5-min Rain = 0
KCL1 111445Z 32012KT M07/M12 A3014 RMK A01 T10701124  RH  065%=      5-min Rain = 0
KCL1 111446Z 32012KT M07/M12 A3014 RMK A01 T10701124  RH  065%=      5-min Rain = 0
KCL1 111447Z 32010KT M07/M12 A3014 RMK A01 T10691124  RH  065%=      5-min Rain = 0
KCL1 111448Z 32011G17KT M07/M12 A3014 RMK A01 T10681124  RH  065%=      5-min Rain = 0
KCL1 111449Z 32014KT M07/M12 A3014 RMK A01 T10681124  RH  064%=      5-min Rain = 0
KCL1 111450Z 33013KT M07/M12 A3014 RMK A01 T10681124  RH  064%=      5-min Rain = 0
KCL1 111451Z 33013KT M07/M12 A3014 RMK A01 T10671123  RH  064%=      5-min Rain = 0
KCL1 111452Z 32013KT M07/M12 A3014 RMK A01 T10661123  RH  064%=      5-min Rain = 0
KCL1 111453Z 32016KT M07/M12 A3014 RMK A01 T10661123  RH  064%=      5-min Rain = 0
KCL1 111454Z 32014KT M07/M12 A3014 RMK A01 T10661124  RH  064%=      5-min Rain = 0
KCL1 111455Z 32013KT M07/M12 A3015 RMK A01 T10661124  RH  064%=      5-min Rain = 0
KCL1 111456Z 33013KT M07/M12 A3015 RMK A01 T10661123  RH  064%=      5-min Rain = 0
KCL1 111457Z 32012KT M07/M12 A3014 RMK A01 T10651122  RH  064%=      5-min Rain = 0
KCL1 111458Z 33012KT M07/M12 A3014 RMK A01 T10651122  RH  064%=      5-min Rain = 0
KCL1 111459Z 33014KT M06/M12 A3014 RMK A01 T10641122  RH  063%=      5-min Rain = 0
KCL1 111500Z 33014KT M06/M12 A3014 RMK A01 T10641122  RH  063%=      5-min Rain = 0
KCL1 111501Z 32012KT M06/M12 A3014 RMK A01 T10641123  RH  063%=      5-min Rain = 0
KCL1 111502Z 32014KT M06/M12 A3014 RMK A01 T10631122  RH  063%=      5-min Rain = 0
KCL1 111503Z 33014KT M06/M12 A3014 RMK A01 T10631122  RH  063%=      5-min Rain = 0
KCL1 111504Z 33014KT M06/M12 A3014 RMK A01 T10621122  RH  063%=      5-min Rain = 0
KCL1 111505Z 33014KT M06/M12 A3014 RMK A01 T10631122  RH  063%=      5-min Rain = 0
KCL1 111506Z 33015KT M06/M12 A3014 RMK A01 T10621122  RH  063%=      5-min Rain = 0
KCL1 111507Z 33014KT M06/M12 A3014 RMK A01 T10621122  RH  062%=      5-min Rain = 0
KCL1 111508Z 32013G18KT M06/M12 A3014 RMK A01 T10611122  RH  062%=      5-min Rain = 0
KCL1 111509Z 33016KT M06/M12 A3014 RMK A01 T10611121  RH  062%=      5-min Rain = 0
KCL1 111510Z 33014KT M06/M12 A3014 RMK A01 T10611122  RH  062%=      5-min Rain = 0
KCL1 111511Z 32016KT M06/M12 A3014 RMK A01 T10601122  RH  062%=      5-min Rain = 0
KCL1 111512Z 32012KT M06/M12 A3014 RMK A01 T10601122  RH  062%=      5-min Rain = 0
KCL1 111513Z 32013KT M06/M12 A3015 RMK A01 T10591121  RH  062%=      5-min Rain = 0
KCL1 111514Z 33012KT M06/M12 A3015 RMK A01 T10581120  RH  062%=      5-min Rain = 0
KCL1 111515Z 32014KT M06/M12 A3015 RMK A01 T10571120  RH  061%=      5-min Rain = 0
KCL1 111516Z 33012KT M06/M12 A3015 RMK A01 T10571120  RH  061%=      5-min Rain = 0
KCL1 111517Z 33011KT M06/M12 A3015 RMK A01 T10571121  RH  061%=      5-min Rain = 0
KCL1 111518Z 33014G19KT M06/M12 A3015 RMK A01 T10571121  RH  061%=      5-min Rain = 0
KCL1 111519Z 33015KT M06/M12 A3015 RMK A01 T10571121  RH  061%=      5-min Rain = 0
KCL1 111520Z 33016KT M06/M12 A3015 RMK A01 T10571121  RH  061%=      5-min Rain = 0
KCL1 111521Z 33016KT M06/M12 A3015 RMK A01 T10571121  RH  060%=      5-min Rain = 0
KCL1 111522Z 33017KT M06/M12 A3015 RMK A01 T10571121  RH  060%=      5-min Rain = 0
KCL1 111523Z 32014KT M06/M12 A3015 RMK A01 T10571121  RH  060%=      5-min Rain = 0
KCL1 111524Z 32014KT M06/M12 A3015 RMK A01 T10561121  RH  060%=      5-min Rain = 0
KCL1 111525Z 32012KT M06/M12 A3015 RMK A01 T10561121  RH  060%=      5-min Rain = 0
KCL1 111526Z 33013KT M06/M12 A3015 RMK A01 T10561121  RH  060%=      5-min Rain = 0
KCL1 111527Z 33014KT M06/M12 A3015 RMK A01 T10551121  RH  060%=      5-min Rain = 0
KCL1 111528Z 32014G19KT M06/M12 A3015 RMK A01 T10551121  RH  060%=      5-min Rain = 0
KCL1 111529Z 33016KT M06/M12 A3015 RMK A01 T10551121  RH  060%=      5-min Rain = 0
KCL1 111530Z 33013KT M06/M12 A3015 RMK A01 T10551122  RH  059%=      5-min Rain = 0
KCL1 111531Z 33014KT M06/M12 A3015 RMK A01 T10551122  RH  059%=      5-min Rain = 0
KCL1 111532Z 33011KT M05/M12 A3015 RMK A01 T10541121  RH  059%=      5-min Rain = 0
KCL1 111533Z 33012KT M05/M12 A3015 RMK A01 T10541121  RH  059%=      5-min Rain = 0
KCL1 111534Z 33012KT M05/M12 A3015 RMK A01 T10531121  RH  059%=      5-min Rain = 0
KCL1 111535Z 33015KT M05/M12 A3015 RMK A01 T10531121  RH  059%=      5-min Rain = 0
KCL1 111536Z 33015KT M05/M12 A3015 RMK A01 T10531121  RH  059%=      5-min Rain = 0
KCL1 111537Z 32014KT M05/M12 A3015 RMK A01 T10531121  RH  059%=      5-min Rain = 0
KCL1 111538Z 33011KT M05/M12 A3016 RMK A01 T10531121  RH  059%=      5-min Rain = 0
KCL1 111539Z 33010KT M05/M12 A3016 RMK A01 T10521120  RH  059%=      5-min Rain = 0
KCL1 111540Z 34014KT M05/M12 A3016 RMK A01 T10511120  RH  058%=      5-min Rain = 0
KCL1 111541Z 33014KT M05/M12 A3016 RMK A01 T10501120  RH  058%=      5-min Rain = 0
KCL1 111542Z 32012KT M05/M12 A3016 RMK A01 T10501120  RH  058%=      5-min Rain = 0
KCL1 111543Z 33014KT M05/M12 A3016 RMK A01 T10491118  RH  058%=      5-min Rain = 0
KCL1 111544Z 33015KT M05/M12 A3016 RMK A01 T10491119  RH  058%=      5-min Rain = 0
KCL1 111545Z 32012KT M05/M12 A3016 RMK A01 T10481118  RH  058%=      5-min Rain = 0
KCL1 111546Z 32017KT M05/M12 A3016 RMK A01 T10461117  RH  058%=      5-min Rain = 0
KCL1 111547Z 33017KT M05/M12 A3017 RMK A01 T10461118  RH  057%=      5-min Rain = 0
KCL1 111548Z 33015KT M05/M12 A3017 RMK A01 T10471118  RH  057%=      5-min Rain = 0
KCL1 111549Z 32015KT M05/M12 A3017 RMK A01 T10461118  RH  057%=      5-min Rain = 0
KCL1 111550Z 32018G23KT M05/M12 A3017 RMK A01 T10461118  RH  057%=      5-min Rain = 0
KCL1 111551Z 32018KT M05/M12 A3017 RMK A01 T10451118  RH  057%=      5-min Rain = 0
KCL1 111552Z 33018KT M05/M12 A3017 RMK A01 T10451118  RH  057%=      5-min Rain = 0
KCL1 111553Z 32016KT M05/M12 A3017 RMK A01 T10451119  RH  057%=      5-min Rain = 0
KCL1 111554Z 33015KT M05/M12 A3017 RMK A01 T10451118  RH  057%=      5-min Rain = 0
KCL1 111555Z 33013G18KT M04/M12 A3017 RMK A01 T10441118  RH  057%=      5-min Rain = 0
KCL1 111556Z 32016G21KT M04/M12 A3017 RMK A01 T10421117  RH  056%=      5-min Rain = 0
KCL1 111557Z 33016KT M04/M12 A3017 RMK A01 T10421117  RH  056%=      5-min Rain = 0
KCL1 111558Z 33017KT M04/M12 A3017 RMK A01 T10421118  RH  055%=      5-min Rain = 0
KCL1 111559Z 33014G19KT M04/M12 A3017 RMK A01 T10431119  RH  055%=      5-min Rain = 0
KCL1 111600Z 33014G19KT M04/M12 A3017 RMK A01 T10411117  RH  055%=      5-min Rain = 0
KCL1 111601Z 33015KT M04/M12 A3017 RMK A01 T10401117  RH  055%=      5-min Rain = 0
KCL1 111602Z 33017KT M04/M12 A3017 RMK A01 T10391118  RH  054%=      5-min Rain = 0
KCL1 111603Z 33015G20KT M04/M12 A3017 RMK A01 T10401119  RH  054%=      5-min Rain = 0
KCL1 111604Z 33017KT M04/M12 A3017 RMK A01 T10401119  RH  054%=      5-min Rain = 0
KCL1 111605Z 33017KT M04/M12 A3017 RMK A01 T10401119  RH  054%=      5-min Rain = 0
KCL1 111606Z 33018G23KT M04/M12 A3017 RMK A01 T10401119  RH  054%=      5-min Rain = 0
KCL1 111607Z 32016KT M04/M12 A3017 RMK A01 T10411120  RH  054%=      5-min Rain = 0
KCL1 111608Z 33017KT M04/M12 A3017 RMK A01 T10401119  RH  054%=      5-min Rain = 0
KCL1 111609Z 33017KT M04/M12 A3017 RMK A01 T10391117  RH  054%=      5-min Rain = 0
KCL1 111610Z 33018KT M04/M12 A3017 RMK A01 T10371116  RH  054%=      5-min Rain = 0
KCL1 111611Z 33019KT M04/M12 A3017 RMK A01 T10371116  RH  054%=      5-min Rain = 0
KCL1 111612Z 33016KT M04/M12 A3017 RMK A01 T10371117  RH  054%=      5-min Rain = 0
KCL1 111613Z 33018KT M04/M12 A3017 RMK A01 T10361117  RH  053%=      5-min Rain = 0
KCL1 111614Z 33019KT M04/M12 A3017 RMK A01 T10351117  RH  053%=      5-min Rain = 0
KCL1 111615Z 33017KT M04/M12 A3017 RMK A01 T10351117  RH  053%=      5-min Rain = 0
KCL1 111616Z 33017KT M04/M12 A3017 RMK A01 T10351117  RH  053%=      5-min Rain = 0
KCL1 111617Z 32017KT M04/M12 A3017 RMK A01 T10351117  RH  053%=      5-min Rain = 0
KCL1 111618Z 33018KT M03/M12 A3017 RMK A01 T10341117  RH  053%=      5-min Rain = 0
KCL1 111619Z 33016KT M03/M12 A3017 RMK A01 T10331117  RH  052%=      5-min Rain = 0
KCL1 111620Z 33016G21KT M03/M12 A3017 RMK A01 T10331118  RH  052%=      5-min Rain = 0
KCL1 111621Z 33015KT M03/M12 A3017 RMK A01 T10331117  RH  052%=      5-min Rain = 0
KCL1 111622Z 33017G22KT M03/M12 A3017 RMK A01 T10321117  RH  052%=      5-min Rain = 0
KCL1 111623Z 33019KT M03/M12 A3017 RMK A01 T10321117  RH  052%=      5-min Rain = 0
KCL1 111624Z 33017KT M03/M12 A3017 RMK A01 T10321118  RH  052%=      5-min Rain = 0
KCL1 111625Z 33016KT M03/M12 A3017 RMK A01 T10321118  RH  051%=      5-min Rain = 0
KCL1 111626Z 33016KT M03/M12 A3018 RMK A01 T10311117  RH  051%=      5-min Rain = 0
KCL1 111627Z 32016KT M03/M12 A3018 RMK A01 T10291116  RH  051%=      5-min Rain = 0
KCL1 111628Z 33019KT M03/M12 A3018 RMK A01 T10281116  RH  051%=      5-min Rain = 0
KCL1 111629Z 34018KT M03/M12 A3018 RMK A01 T10281118  RH  050%=      5-min Rain = 0
KCL1 111630Z 34017KT M03/M12 A3018 RMK A01 T10291118  RH  050%=      5-min Rain = 0
KCL1 111631Z 34015G20KT M03/M12 A3018 RMK A01 T10291118  RH  050%=      5-min Rain = 0
KCL1 111632Z 35013KT M03/M12 A3018 RMK A01 T10281117  RH  050%=      5-min Rain = 0
KCL1 111633Z 34016G21KT M03/M12 A3018 RMK A01 T10251115  RH  050%=      5-min Rain = 0
KCL1 111634Z 34017KT M03/M12 A3018 RMK A01 T10251117  RH  049%=      5-min Rain = 0
KCL1 111635Z 34011KT M03/M12 A3018 RMK A01 T10271118  RH  049%=      5-min Rain = 0
KCL1 111636Z 33017KT M02/M12 A3017 RMK A01 T10241116  RH  050%=      5-min Rain = 0
KCL1 111637Z 35015G20KT M03/M12 A3017 RMK A01 T10251117  RH  049%=      5-min Rain = 0
KCL1 111638Z 34015KT M02/M12 A3018 RMK A01 T10231116  RH  049%=      5-min Rain = 0
KCL1 111639Z 34016KT M02/M12 A3018 RMK A01 T10221116  RH  049%=      5-min Rain = 0
KCL1 111640Z 35016KT M02/M12 A3018 RMK A01 T10231117  RH  048%=      5-min Rain = 0
KCL1 111641Z 33014KT M02/M12 A3018 RMK A01 T10241118  RH  049%=      5-min Rain = 0
KCL1 111642Z 33017KT M03/M12 A3018 RMK A01 T10251119  RH  049%=      5-min Rain = 0
KCL1 111643Z 34015KT M03/M12 A3018 RMK A01 T10271120  RH  049%=      5-min Rain = 0
KCL1 111644Z 35016KT M03/M12 A3018 RMK A01 T10261119  RH  049%=      5-min Rain = 0
KCL1 111645Z 34014KT M02/M12 A3018 RMK A01 T10241117  RH  049%=      5-min Rain = 0
KCL1 111646Z 34015KT M02/M12 A3018 RMK A01 T10211116  RH  048%=      5-min Rain = 0
KCL1 111647Z 35016KT M02/M12 A3018 RMK A01 T10211117  RH  048%=      5-min Rain = 0
KCL1 111648Z 35012G17KT M02/M12 A3018 RMK A01 T10211118  RH  048%=      5-min Rain = 0
KCL1 111649Z 34017KT M02/M12 A3018 RMK A01 T10201117  RH  048%=      5-min Rain = 0
KCL1 111650Z 33018KT M02/M12 A3018 RMK A01 T10241120  RH  047%=      5-min Rain = 0
KCL1 111651Z 33017KT M03/M12 A3018 RMK A01 T10271122  RH  048%=      5-min Rain = 0
KCL1 111652Z 33016KT M03/M12 A3018 RMK A01 T10281121  RH  049%=      5-min Rain = 0
KCL1 111653Z 32015G20KT M03/M12 A3018 RMK A01 T10281120  RH  049%=      5-min Rain = 0
KCL1 111654Z 33018KT M03/M12 A3018 RMK A01 T10281119  RH  049%=      5-min Rain = 0
KCL1 111655Z 33014KT M03/M12 A3018 RMK A01 T10271120  RH  049%=      5-min Rain = 0
KCL1 111656Z 34016KT M03/M12 A3018 RMK A01 T10261119  RH  049%=      5-min Rain = 0
KCL1 111657Z 33013KT M03/M12 A3018 RMK A01 T10251119  RH  049%=      5-min Rain = 0
KCL1 111658Z 33014KT M02/M12 A3018 RMK A01 T10241118  RH  048%=      5-min Rain = 0
KCL1 111659Z 33015KT M02/M12 A3018 RMK A01 T10221117  RH  048%=      5-min Rain = 0
KCL1 111700Z 33012KT M02/M12 A3018 RMK A01 T10211116  RH  048%=      5-min Rain = 0
KCL1 111701Z 34015KT M02/M12 A3017 RMK A01 T10191116  RH  047%=      5-min Rain = 0
KCL1 111702Z 35013KT M02/M12 A3017 RMK A01 T10171116  RH  047%=      5-min Rain = 0
KCL1 111703Z 34017KT M02/M12 A3018 RMK A01 T10161116  RH  046%=      5-min Rain = 0
KCL1 111704Z 34016KT M02/M12 A3018 RMK A01 T10161117  RH  046%=      5-min Rain = 0
KCL1 111705Z 34013KT M02/M12 A3018 RMK A01 T10161117  RH  046%=      5-min Rain = 0
KCL1 111706Z 33014G19KT M02/M12 A3018 RMK A01 T10181119  RH  046%=      5-min Rain = 0
KCL1 111707Z 33017KT M02/M12 A3018 RMK A01 T10201119  RH  047%=      5-min Rain = 0
KCL1 111708Z 32017KT M02/M12 A3018 RMK A01 T10201119  RH  047%=      5-min Rain = 0
KCL1 111709Z 32014KT M02/M12 A3018 RMK A01 T10191119  RH  046%=      5-min Rain = 0
KCL1 111710Z 32014KT M02/M12 A3018 RMK A01 T10171117  RH  046%=      5-min Rain = 0
KCL1 111711Z 32014KT M02/M12 A3018 RMK A01 T10161117  RH  046%=      5-min Rain = 0
KCL1 111712Z 33013KT M02/M12 A3018 RMK A01 T10181119  RH  046%=      5-min Rain = 0
KCL1 111713Z 35011KT M02/M12 A3018 RMK A01 T10191119  RH  046%=      5-min Rain = 0
KCL1 111714Z 35010KT M02/M12 A3018 RMK A01 T10191119  RH  046%=      5-min Rain = 0
KCL1 111715Z 35013KT M02/M12 A3018 RMK A01 T10181119  RH  046%=      5-min Rain = 0
KCL1 111716Z 33014KT M02/M12 A3017 RMK A01 T10171118  RH  046%=      5-min Rain = 0
KCL1 111717Z 34016KT M01/M12 A3017 RMK A01 T10141117  RH  046%=      5-min Rain = 0
KCL1 111718Z 34014KT M01/M12 A3018 RMK A01 T10131117  RH  045%=      5-min Rain = 0
KCL1 111719Z 33014KT M01/M12 A3018 RMK A01 T10121117  RH  045%=      5-min Rain = 0
KCL1 111720Z 33015KT M01/M12 A3017 RMK A01 T10111117  RH  044%=      5-min Rain = 0
KCL1 111721Z 33012KT M01/M12 A3017 RMK A01 T10091117  RH  044%=      5-min Rain = 0
KCL1 111722Z 32012KT M01/M12 A3017 RMK A01 T10071115  RH  044%=      5-min Rain = 0
KCL1 111723Z 34012KT M00/M11 A3017 RMK A01 T10041114  RH  043%=      5-min Rain = 0
KCL1 111724Z 33014KT M00/M12 A3017 RMK A01 T10021115  RH  042%=      5-min Rain = 0
KCL1 111725Z 33012KT M01/M12 A3017 RMK A01 T10051118  RH  042%=      5-min Rain = 0
KCL1 111726Z 33012G17KT M01/M12 A3017 RMK A01 T10071119  RH  042%=      5-min Rain = 0
KCL1 111727Z 34015KT M01/M12 A3018 RMK A01 T10071119  RH  042%=      5-min Rain = 0
KCL1 111728Z 34012KT M01/M12 A3017 RMK A01 T10081120  RH  042%=      5-min Rain = 0
KCL1 111729Z 33013KT M01/M12 A3017 RMK A01 T10091120  RH  043%=      5-min Rain = 0
KCL1 111730Z 33015KT M01/M12 A3017 RMK A01 T10061117  RH  043%=      5-min Rain = 0
KCL1 111731Z 34014KT M00/M12 A3018 RMK A01 T10041118  RH  042%=      5-min Rain = 0
KCL1 111732Z 33013G18KT M00/M12 A3017 RMK A01 T10041119  RH  042%=      5-min Rain = 0
KCL1 111733Z 35012KT M00/M12 A3017 RMK A01 T10031118  RH  042%=      5-min Rain = 0
KCL1 111734Z 34014KT M00/M12 A3017 RMK A01 T10011117  RH  041%=      5-min Rain = 0
KCL1 111735Z 33017KT 00/12 A3017 RMK A01 T00000-119  RH  040%=      5-min Rain = 0
KCL1 111736Z 34012KT M00/M12 A3017 RMK A01 T10031123  RH  040%=      5-min Rain = 0
KCL1 111737Z 34014G21KT M00/M12 A3017 RMK A01 T10021119  RH  041%=      5-min Rain = 0
KCL1 111738Z 35011KT 00/12 A3017 RMK A01 T00000-118  RH  040%=      5-min Rain = 0
KCL1 111739Z 34014KT 00/M12 A3017 RMK A01 T00031116  RH  040%=      5-min Rain = 0
KCL1 111740Z 33012KT 00/M12 A3017 RMK A01 T00041117  RH  040%=      5-min Rain = 0
KCL1 111741Z 33009KT 00/M12 A3017 RMK A01 T00031118  RH  040%=      5-min Rain = 0
KCL1 111742Z 32011G16KT 00/M12 A3017 RMK A01 T00031117  RH  040%=      5-min Rain = 0
KCL1 111743Z 33011KT 00/M12 A3017 RMK A01 T00041118  RH  040%=      5-min Rain = 0
KCL1 111744Z 34011KT 00/M12 A3017 RMK A01 T00021119  RH  040%=      5-min Rain = 0
KCL1 111745Z 35011KT 01/M12 A3018 RMK A01 T00051119  RH  039%=      5-min Rain = 0
KCL1 111746Z 34011G16KT 01/M12 A3017 RMK A01 T00071119  RH  038%=      5-min Rain = 0
KCL1 111747Z 35014KT 01/M12 A3018 RMK A01 T00061122  RH  038%=      5-min Rain = 0
KCL1 111748Z 34014KT 01/M12 A3018 RMK A01 T00051124  RH  037%=      5-min Rain = 0
KCL1 111749Z 34018KT 01/M13 A3017 RMK A01 T00051125  RH  037%=      5-min Rain = 0
KCL1 111750Z 33016KT 00/M13 A3017 RMK A01 T00041127  RH  037%=      5-min Rain = 0
KCL1 111751Z 35015KT 00/M13 A3017 RMK A01 T00041127  RH  037%=      5-min Rain = 0
KCL1 111752Z 35013KT 00/M13 A3017 RMK A01 T00041128  RH  037%=      5-min Rain = 0
KCL1 111753Z 34011KT 01/M13 A3017 RMK A01 T00051126  RH  037%=      5-min Rain = 0
KCL1 111754Z 34009KT 01/M13 A3017 RMK A01 T00061125  RH  037%=      5-min Rain = 0
KCL1 111755Z 33012KT 01/M12 A3017 RMK A01 T00071124  RH  037%=      5-min Rain = 0
KCL1 111756Z 35013KT 01/M12 A3017 RMK A01 T00081123  RH  037%=      5-min Rain = 0
KCL1 111757Z 34012KT 01/M12 A3017 RMK A01 T00101124  RH  036%=      5-min Rain = 0
KCL1 111758Z 34011KT 01/M13 A3017 RMK A01 T00101126  RH  036%=      5-min Rain = 0
KCL1 111759Z 34012G17KT 01/M13 A3017 RMK A01 T00091127  RH  036%=      5-min Rain = 0
KCL1 111800Z 36012KT 01/M13 A3017 RMK A01 T00101129  RH  034%=      5-min Rain = 0
KCL1 111801Z 35014G19KT 01/M13 A3017 RMK A01 T00101132  RH  034%=      5-min Rain = 0
KCL1 111802Z 36011KT 01/M13 A3017 RMK A01 T00101131  RH  034%=      5-min Rain = 0
KCL1 111803Z 35014KT 01/M13 A3017 RMK A01 T00101130  RH  034%=      5-min Rain = 0
KCL1 111804Z 35015KT 01/M13 A3017 RMK A01 T00101130  RH  034%=      5-min Rain = 0
KCL1 111805Z 35014KT 01/M13 A3017 RMK A01 T00101131  RH  034%=      5-min Rain = 0
KCL1 111806Z 35010KT 01/M13 A3017 RMK A01 T00091130  RH  034%=      5-min Rain = 0
KCL1 111807Z 35015KT 01/M13 A3017 RMK A01 T00091129  RH  035%=      5-min Rain = 0
KCL1 111808Z 35013KT 01/M13 A3016 RMK A01 T00111131  RH  034%=      5-min Rain = 0
KCL1 111809Z 36012KT 01/M13 A3016 RMK A01 T00111131  RH  034%=      5-min Rain = 0
KCL1 111810Z 34013KT 01/M13 A3016 RMK A01 T00111132  RH  034%=      5-min Rain = 0
KCL1 111811Z 34013KT 01/M13 A3016 RMK A01 T00121132  RH  033%=      5-min Rain = 0
KCL1 111812Z 35011KT 01/M13 A3016 RMK A01 T00121131  RH  034%=      5-min Rain = 0
KCL1 111813Z 00012KT 01/M13 A3016 RMK A01 T00141129  RH  034%=      5-min Rain = 0
KCL1 111814Z 34012KT 01/M13 A3016 RMK A01 T00141130  RH  033%=      5-min Rain = 0
KCL1 111815Z 34010KT 02/M13 A3016 RMK A01 T00151130  RH  033%=      5-min Rain = 0
KCL1 111816Z 34008G14KT 02/M13 A3016 RMK A01 T00181127  RH  033%=      5-min Rain = 0
KCL1 111817Z 34010KT 02/M13 A3016 RMK A01 T00201127  RH  033%=      5-min Rain = 0
KCL1 111818Z 34009KT 02/M13 A3016 RMK A01 T00201129  RH  032%=      5-min Rain = 0
KCL1 111819Z 34010KT 02/M13 A3016 RMK A01 T00191131  RH  032%=      5-min Rain = 0
KCL1 111820Z 34012KT 02/M13 A3016 RMK A01 T00191129  RH  032%=      5-min Rain = 0
KCL1 111821Z 33010KT 02/M13 A3016 RMK A01 T00201128  RH  032%=      5-min Rain = 0
KCL1 111822Z 33010KT 02/M13 A3016 RMK A01 T00201129  RH  032%=      5-min Rain = 0
KCL1 111823Z 34012KT 02/M13 A3016 RMK A01 T00221128  RH  032%=      5-min Rain = 0
KCL1 111824Z 34010KT 02/M13 A3016 RMK A01 T00221130  RH  031%=      5-min Rain = 0
KCL1 111825Z 33007KT 02/M13 A3016 RMK A01 T00221131  RH  031%=      5-min Rain = 0
KCL1 111826Z 34011G16KT 02/M13 A3016 RMK A01 T00241128  RH  031%=      5-min Rain = 0
KCL1 111827Z 34010KT 03/M13 A3016 RMK A01 T00251129  RH  031%=      5-min Rain = 0
KCL1 111828Z 35008KT 03/M13 A3016 RMK A01 T00251130  RH  031%=      5-min Rain = 0
KCL1 111829Z 35011KT 03/M13 A3016 RMK A01 T00251130  RH  031%=      5-min Rain = 0
KCL1 111830Z 35010KT 02/M13 A3016 RMK A01 T00231132  RH  031%=      5-min Rain = 0
KCL1 111831Z 34009G14KT 02/M13 A3016 RMK A01 T00221132  RH  031%=      5-min Rain = 0
KCL1 111832Z 33013KT 02/M13 A3016 RMK A01 T00241130  RH  031%=      5-min Rain = 0
KCL1 111833Z 33009KT 02/M13 A3016 RMK A01 T00231132  RH  031%=      5-min Rain = 0
KCL1 111834Z 33011KT 02/M13 A3015 RMK A01 T00211133  RH  031%=      5-min Rain = 0
KCL1 111835Z 33013KT 02/M13 A3015 RMK A01 T00231131  RH  031%=      5-min Rain = 0
KCL1 111836Z 34009KT 02/M13 A3015 RMK A01 T00221133  RH  031%=      5-min Rain = 0
KCL1 111837Z 34007KT 02/M13 A3015 RMK A01 T00221132  RH  031%=      5-min Rain = 0
KCL1 111838Z 35008KT 02/M13 A3015 RMK A01 T00221132  RH  031%=      5-min Rain = 0
KCL1 111839Z 00009KT 02/M13 A3015 RMK A01 T00221131  RH  031%=      5-min Rain = 0
KCL1 111840Z 00008KT 02/M13 A3015 RMK A01 T00241131  RH  031%=      5-min Rain = 0
KCL1 111841Z 32009KT 03/M13 A3015 RMK A01 T00261132  RH  030%=      5-min Rain = 0
KCL1 111842Z 33007KT 03/M13 A3015 RMK A01 T00271132  RH  030%=      5-min Rain = 0
KCL1 111843Z 34006KT 03/M13 A3015 RMK A01 T00261132  RH  030%=      5-min Rain = 0
KCL1 111844Z 35009KT 03/M13 A3015 RMK A01 T00281130  RH  030%=      5-min Rain = 0
KCL1 111845Z 35007KT 03/M13 A3015 RMK A01 T00291132  RH  030%=      5-min Rain = 0
KCL1 111846Z 33006KT 03/M13 A3015 RMK A01 T00301131  RH  030%=      5-min Rain = 0
KCL1 111847Z 35007KT 03/M13 A3015 RMK A01 T00301132  RH  029%=      5-min Rain = 0
KCL1 111848Z 34009KT 03/M13 A3015 RMK A01 T00301134  RH  029%=      5-min Rain = 0
KCL1 111849Z 00009KT 03/M13 A3015 RMK A01 T00331132  RH  029%=      5-min Rain = 0
KCL1 111850Z 35010KT 03/M13 A3015 RMK A01 T00321134  RH  028%=      5-min Rain = 0
KCL1 111851Z 33009KT 03/M14 A3015 RMK A01 T00311135  RH  028%=      5-min Rain = 0
KCL1 111852Z 33008KT 03/M13 A3015 RMK A01 T00321133  RH  028%=      5-min Rain = 0
KCL1 111853Z 36009KT 04/M13 A3015 RMK A01 T00351132  RH  028%=      5-min Rain = 0
KCL1 111854Z 35008KT 04/M13 A3015 RMK A01 T00371131  RH  028%=      5-min Rain = 0
KCL1 111855Z 34010KT 04/M13 A3015 RMK A01 T00391132  RH  028%=      5-min Rain = 0
KCL1 111856Z 35007KT 04/M14 A3015 RMK A01 T00361137  RH  027%=      5-min Rain = 0
KCL1 111857Z 35010KT 04/M14 A3015 RMK A01 T00351136  RH  027%=      5-min Rain = 0
KCL1 111858Z 00009KT 04/M14 A3015 RMK A01 T00361135  RH  027%=      5-min Rain = 0
KCL1 111859Z 00007KT 04/M14 A3015 RMK A01 T00351136  RH  027%=      5-min Rain = 0
KCL1 111900Z 35008KT 04/M14 A3014 RMK A01 T00351135  RH  028%=      5-min Rain = 0
KCL1 111901Z 35010KT 04/M14 A3014 RMK A01 T00351135  RH  028%=      5-min Rain = 0
KCL1 111902Z 35009KT 04/M13 A3014 RMK A01 T00371134  RH  027%=      5-min Rain = 0
KCL1 111903Z 34010KT 04/M13 A3014 RMK A01 T00371134  RH  027%=      5-min Rain = 0
KCL1 111904Z 35010KT 04/M14 A3014 RMK A01 T00371135  RH  027%=      5-min Rain = 0
KCL1 111905Z 35010KT 04/M13 A3014 RMK A01 T00371134  RH  027%=      5-min Rain = 0
KCL1 111906Z 34012KT 04/M13 A3014 RMK A01 T00371133  RH  028%=      5-min Rain = 0
KCL1 111907Z 33010KT 04/M13 A3014 RMK A01 T00371133  RH  028%=      5-min Rain = 0
KCL1 111908Z 32006KT 04/M13 A3014 RMK A01 T00371133  RH  028%=      5-min Rain = 0
KCL1 111909Z 33008KT 04/M13 A3014 RMK A01 T00381132  RH  028%=      5-min Rain = 0
KCL1 111910Z 35010KT 04/M13 A3014 RMK A01 T00421131  RH  027%=      5-min Rain = 0
KCL1 111911Z 35010KT 04/M13 A3014 RMK A01 T00431134  RH  026%=      5-min Rain = 0
KCL1 111912Z 34010KT 04/M14 A3014 RMK A01 T00401138  RH  026%=      5-min Rain = 0
KCL1 111913Z 34009KT 04/M14 A3014 RMK A01 T00391138  RH  026%=      5-min Rain = 0
KCL1 111914Z 33008KT 04/M14 A3014 RMK A01 T00391136  RH  027%=      5-min Rain = 0
KCL1 111915Z 33009KT 04/M14 A3014 RMK A01 T00411135  RH  027%=      5-min Rain = 0
KCL1 111916Z 33006KT 04/M14 A3013 RMK A01 T00401135  RH  027%=      5-min Rain = 0
KCL1 111917Z 35006KT 04/M13 A3013 RMK A01 T00421133  RH  027%=      5-min Rain = 0
KCL1 111918Z 02008KT 04/M13 A3013 RMK A01 T00431134  RH  026%=      5-min Rain = 0
KCL1 111919Z 35009KT 04/M13 A3013 RMK A01 T00431134  RH  026%=      5-min Rain = 0
KCL1 111920Z 35008KT 04/M13 A3013 RMK A01 T00441134  RH  026%=      5-min Rain = 0
KCL1 111921Z 34006KT 05/M14 A3013 RMK A01 T00461135  RH  025%=      5-min Rain = 0
KCL1 111922Z 31005KT 05/M14 A3013 RMK A01 T00461135  RH  025%=      5-min Rain = 0
KCL1 111923Z 30006KT 05/M13 A3013 RMK A01 T00491133  RH  025%=      5-min Rain = 0
KCL1 111924Z 32008KT 05/M14 A3012 RMK A01 T00491136  RH  025%=      5-min Rain = 0
KCL1 111925Z 32010KT 05/M14 A3012 RMK A01 T00471136  RH  025%=      5-min Rain = 0
KCL1 111926Z 32010KT 05/M14 A3012 RMK A01 T00471136  RH  025%=      5-min Rain = 0
KCL1 111927Z 32011KT 05/M14 A3012 RMK A01 T00471136  RH  025%=      5-min Rain = 0
KCL1 111928Z 34009KT 05/M14 A3013 RMK A01 T00451139  RH  025%=      5-min Rain = 0
KCL1 111929Z 34009KT 04/M14 A3013 RMK A01 T00441138  RH  025%=      5-min Rain = 0
KCL1 111930Z 01009KT 05/M13 A3013 RMK A01 T00481134  RH  025%=      5-min Rain = 0
KCL1 111931Z 02009KT 05/M14 A3012 RMK A01 T00481138  RH  025%=      5-min Rain = 0
KCL1 111932Z 02006KT 05/M14 A3012 RMK A01 T00461140  RH  025%=      5-min Rain = 0
KCL1 111933Z 34007KT 04/M14 A3012 RMK A01 T00441140  RH  025%=      5-min Rain = 0
KCL1 111934Z 34008G13KT 05/M14 A3012 RMK A01 T00451138  RH  025%=      5-min Rain = 0
KCL1 111935Z 34010KT 05/M14 A3012 RMK A01 T00461135  RH  025%=      5-min Rain = 0
KCL1 111936Z 34006KT 05/M14 A3012 RMK A01 T00461136  RH  025%=      5-min Rain = 0
KCL1 111937Z 33008KT 05/M14 A3012 RMK A01 T00461136  RH  025%=      5-min Rain = 0
KCL1 111938Z 32008KT 05/M14 A3012 RMK A01 T00471136  RH  025%=      5-min Rain = 0
KCL1 111939Z 33009KT 05/M14 A3012 RMK A01 T00481135  RH  025%=      5-min Rain = 0
KCL1 111940Z 34007KT 05/M14 A3012 RMK A01 T00481136  RH  025%=      5-min Rain = 0
KCL1 111941Z 34007KT 05/M14 A3012 RMK A01 T00481136  RH  025%=      5-min Rain = 0
KCL1 111942Z 34011KT 05/M14 A3012 RMK A01 T00491135  RH  025%=      5-min Rain = 0
KCL1 111943Z 33010KT 05/M14 A3012 RMK A01 T00501136  RH  025%=      5-min Rain = 0
KCL1 111944Z 32007KT 05/M14 A3012 RMK A01 T00491137  RH  025%=      5-min Rain = 0
KCL1 111945Z 31006KT 05/M14 A3012 RMK A01 T00471138  RH  025%=      5-min Rain = 0
KCL1 111946Z 33010KT 05/M14 A3012 RMK A01 T00471136  RH  025%=      5-min Rain = 0
KCL1 111947Z 34009KT 05/M14 A3012 RMK A01 T00481136  RH  025%=      5-min Rain = 0
KCL1 111948Z 34006KT 05/M14 A3012 RMK A01 T00481137  RH  025%=      5-min Rain = 0
KCL1 111949Z 35008KT 05/M13 A3012 RMK A01 T00501134  RH  025%=      5-min Rain = 0
KCL1 111950Z 00007KT 05/M14 A3012 RMK A01 T00521137  RH  024%=      5-min Rain = 0
KCL1 111951Z 35008KT 05/M14 A3012 RMK A01 T00511140  RH  024%=      5-min Rain = 0
KCL1 111952Z 00006KT 05/M14 A3012 RMK A01 T00491142  RH  024%=      5-min Rain = 0
KCL1 111953Z 34008KT 05/M14 A3011 RMK A01 T00511139  RH  024%=      5-min Rain = 0
KCL1 111954Z 34008KT 05/M14 A3011 RMK A01 T00521138  RH  024%=      5-min Rain = 0
KCL1 111955Z 34009KT 05/M14 A3011 RMK A01 T00501141  RH  024%=      5-min Rain = 0
KCL1 111956Z 34005KT 05/M14 A3011 RMK A01 T00471142  RH  024%=      5-min Rain = 0
KCL1 111957Z 01004KT 05/M14 A3011 RMK A01 T00471139  RH  025%=      5-min Rain = 0
KCL1 111958Z 35006KT 05/M14 A3011 RMK A01 T00491137  RH  024%=      5-min Rain = 0
KCL1 111959Z 34006KT 05/M14 A3011 RMK A01 T00501138  RH  024%=      5-min Rain = 0
KCL1 112000Z 34010KT 05/M14 A3011 RMK A01 T00511136  RH  024%=      5-min Rain = 0
KCL1 112001Z 35010KT 05/M14 A3011 RMK A01 T00531135  RH  024%=      5-min Rain = 0
KCL1 112002Z 35008KT 05/M14 A3011 RMK A01 T00521136  RH  024%=      5-min Rain = 0
KCL1 112003Z 34007KT 05/M14 A3011 RMK A01 T00511140  RH  024%=      5-min Rain = 0
KCL1 112004Z 35003KT 05/M14 A3011 RMK A01 T00461143  RH  024%=      5-min Rain = 0
KCL1 112005Z 35007KT 05/M14 A3011 RMK A01 T00471139  RH  025%=      5-min Rain = 0
KCL1 112006Z 35005KT 05/M14 A3011 RMK A01 T00501136  RH  025%=      5-min Rain = 0
KCL1 112007Z 00006KT 05/M14 A3011 RMK A01 T00521137  RH  024%=      5-min Rain = 0
KCL1 112008Z 33007KT 05/M14 A3011 RMK A01 T00541137  RH  024%=      5-min Rain = 0
KCL1 112009Z 33005KT 05/M14 A3011 RMK A01 T00541140  RH  023%=      5-min Rain = 0
KCL1 112010Z 36004KT 05/M14 A3011 RMK A01 T00541142  RH  023%=      5-min Rain = 0
KCL1 112011Z 03006KT 05/M14 A301 RMK A01 T00541142  RH  023%=      5-min Rain = 0
KCL1 112012Z 36006KT 06/M14 A301 RMK A01 T00561140  RH  023%=      5-min Rain = 0
KCL1 112013Z 34007KT 06/M14 A301 RMK A01 T00561140  RH  023%=      5-min Rain = 0
KCL1 112014Z 32004KT 06/M14 A301 RMK A01 T00551141  RH  023%=      5-min Rain = 0
KCL1 112015Z 34003KT 05/M14 A301 RMK A01 T00531142  RH  023%=      5-min Rain = 0
KCL1 112016Z 02007G12KT 05/M14 A301 RMK A01 T00511142  RH  023%=      5-min Rain = 0
KCL1 112017Z 35007KT 05/M14 A301 RMK A01 T00541140  RH  023%=      5-min Rain = 0
KCL1 112018Z 00009KT 06/M14 A301 RMK A01 T00581139  RH  023%=      5-min Rain = 0
KCL1 112019Z 36009KT 06/M14 A301 RMK A01 T00581141  RH  022%=      5-min Rain = 0
KCL1 112020Z 34006KT 05/M14 A301 RMK A01 T00541143  RH  023%=      5-min Rain = 0
KCL1 112021Z 33006KT 05/M14 A301 RMK A01 T00541141  RH  023%=      5-min Rain = 0
KCL1 112022Z 35006KT 06/M14 A301 RMK A01 T00551139  RH  023%=      5-min Rain = 0
KCL1 112023Z 00008KT 06/M14 A301 RMK A01 T00561140  RH  023%=      5-min Rain = 0
KCL1 112024Z 35010KT 06/M15 A301 RMK A01 T00551146  RH  022%=      5-min Rain = 0
KCL1 112025Z 34007KT 06/M15 A301 RMK A01 T00551149  RH  021%=      5-min Rain = 0
KCL1 112026Z 34007KT 06/M15 A301 RMK A01 T00561148  RH  021%=      5-min Rain = 0
KCL1 112027Z 01007KT 06/M15 A301 RMK A01 T00551148  RH  022%=      5-min Rain = 0
KCL1 112028Z 01006KT 05/M15 A301 RMK A01 T00541149  RH  022%=      5-min Rain = 0
KCL1 112029Z 36004KT 05/M15 A301 RMK A01 T00521149  RH  022%=      5-min Rain = 0
KCL1 112030Z 03003KT 05/M15 A301 RMK A01 T00531148  RH  022%=      5-min Rain = 0
KCL1 112031Z 00006KT 05/M15 A301 RMK A01 T00541148  RH  022%=      5-min Rain = 0
KCL1 112032Z 00008KT 06/M15 A301 RMK A01 T00551148  RH  022%=      5-min Rain = 0
KCL1 112033Z 02008KT 06/M15 A301 RMK A01 T00581146  RH  021%=      5-min Rain = 0
KCL1 112034Z 02006KT 06/M15 A301 RMK A01 T00571148  RH  021%=      5-min Rain = 0
KCL1 112035Z 33005KT 06/M15 A301 RMK A01 T00561149  RH  021%=      5-min Rain = 0
KCL1 112036Z 34005KT 06/M15 A301 RMK A01 T00571148  RH  021%=      5-min Rain = 0
KCL1 112037Z 33006KT 06/M15 A301 RMK A01 T00581147  RH  021%=      5-min Rain = 0
KCL1 112038Z 33007KT 06/M15 A301 RMK A01 T00581149  RH  021%=      5-min Rain = 0
KCL1 112039Z 35008KT 06/M15 A301 RMK A01 T00561150  RH  021%=      5-min Rain = 0
KCL1 112040Z 34006KT 06/M15 A301 RMK A01 T00581150  RH  021%=      5-min Rain = 0
KCL1 112041Z 35006KT 06/M15 A301 RMK A01 T00601152  RH  020%=      5-min Rain = 0
KCL1 112042Z 00005KT 06/M16 A301 RMK A01 T00581155  RH  020%=      5-min Rain = 0
KCL1 112043Z 33003KT 06/M15 A301 RMK A01 T00581152  RH  020%=      5-min Rain = 0
KCL1 112044Z 35005KT 06/M15 A301 RMK A01 T00571153  RH  020%=      5-min Rain = 0
KCL1 112045Z 32007KT 06/M15 A301 RMK A01 T00591150  RH  021%=      5-min Rain = 0
KCL1 112046Z 33006KT 06/M15 A301 RMK A01 T00601151  RH  020%=      5-min Rain = 0
KCL1 112047Z 34007KT 06/M15 A301 RMK A01 T00611149  RH  021%=      5-min Rain = 0
KCL1 112048Z 33007KT 06/M15 A301 RMK A01 T00591150  RH  021%=      5-min Rain = 0
KCL1 112049Z 33007KT 06/M15 A301 RMK A01 T00591149  RH  021%=      5-min Rain = 0
KCL1 112050Z 36005KT 06/M15 A3011 RMK A01 T00611147  RH  021%=      5-min Rain = 0
KCL1 112051Z 34005KT 06/M15 A3011 RMK A01 T00601149  RH  021%=      5-min Rain = 0
KCL1 112052Z 32006KT 06/M15 A3011 RMK A01 T00591149  RH  021%=      5-min Rain = 0
KCL1 112053Z 34005KT 06/M15 A3011 RMK A01 T00601148  RH  021%=      5-min Rain = 0
KCL1 112054Z 32005KT 06/M15 A301 RMK A01 T00611147  RH  021%=      5-min Rain = 0
KCL1 112055Z 33004KT 06/M15 A301 RMK A01 T00641145  RH  021%=      5-min Rain = 0
KCL1 112056Z 34003KT 06/M15 A301 RMK A01 T00631148  RH  020%=      5-min Rain = 0
KCL1 112057Z 00002KT 06/M15 A301 RMK A01 T00621149  RH  020%=      5-min Rain = 0
KCL1 112058Z 29001KT 06/M15 A301 RMK A01 T00601151  RH  020%=      5-min Rain = 0
KCL1 112059Z 35008KT 06/M15 A301 RMK A01 T00621148  RH  021%=      5-min Rain = 0
KCL1 112100Z 35006KT 06/M15 A301 RMK A01 T00621151  RH  020%=      5-min Rain = 0
KCL1 112101Z 35006KT 06/M15 A301 RMK A01 T00601153  RH  020%=      5-min Rain = 0
KCL1 112102Z 01006KT 06/M15 A301 RMK A01 T00601153  RH  020%=      5-min Rain = 0
KCL1 112103Z 00007KT 06/M15 A301 RMK A01 T00621151  RH  020%=      5-min Rain = 0
KCL1 112104Z 34006KT 06/M15 A301 RMK A01 T00621153  RH  020%=      5-min Rain = 0
KCL1 112105Z 00005KT 06/M15 A301 RMK A01 T00611154  RH  020%=      5-min Rain = 0
KCL1 112106Z 02004KT 06/M15 A3011 RMK A01 T00611152  RH  020%=      5-min Rain = 0
KCL1 112107Z 04003KT 06/M15 A3011 RMK A01 T00611151  RH  020%=      5-min Rain = 0
KCL1 112108Z 01003KT 06/M15 A3011 RMK A01 T00601152  RH  020%=      5-min Rain = 0
KCL1 112109Z 04004KT 06/M15 A3011 RMK A01 T00591153  RH  020%=      5-min Rain = 0
KCL1 112110Z 04003KT 06/M15 A301 RMK A01 T00591150  RH  021%=      5-min Rain = 0
KCL1 112111Z 03003KT 06/M15 A301 RMK A01 T00591149  RH  021%=      5-min Rain = 0
KCL1 112112Z 04007KT 06/M15 A301 RMK A01 T00611147  RH  021%=      5-min Rain = 0
KCL1 112113Z 04005KT 06/M15 A3011 RMK A01 T00611151  RH  020%=      5-min Rain = 0
KCL1 112114Z 01006KT 06/M15 A3011 RMK A01 T00601151  RH  020%=      5-min Rain = 0
KCL1 112115Z 02008KT 06/M15 A3011 RMK A01 T00611149  RH  020%=      5-min Rain = 0
KCL1 112116Z 01007KT 06/M15 A3011 RMK A01 T00611150  RH  020%=      5-min Rain = 0
KCL1 112117Z 36006KT 06/M15 A3011 RMK A01 T00621149  RH  020%=      5-min Rain = 0
KCL1 112118Z 35004KT 06/M15 A3011 RMK A01 T00621150  RH  020%=      5-min Rain = 0
KCL1 112119Z 34002KT 06/M15 A3011 RMK A01 T00621152  RH  020%=      5-min Rain = 0
KCL1 112120Z 35004KT 06/M15 A3011 RMK A01 T00611152  RH  020%=      5-min Rain = 0
KCL1 112121Z 00004KT 06/M15 A3011 RMK A01 T00611151  RH  020%=      5-min Rain = 0
KCL1 112122Z 35001KT 06/M15 A3011 RMK A01 T00611151  RH  020%=      5-min Rain = 0
KCL1 112123Z 04000KT 06/M15 A3011 RMK A01 T00611149  RH  020%=      5-min Rain = 0
KCL1 112124Z 02005KT 06/M15 A3011 RMK A01 T00641147  RH  020%=      5-min Rain = 0
KCL1 112125Z 01010KT 07/M15 A3011 RMK A01 T00661147  RH  020%=      5-min Rain = 0
KCL1 112126Z 01007KT 07/M15 A3011 RMK A01 T00661149  RH  020%=      5-min Rain = 0
KCL1 112127Z 02006KT 06/M15 A3011 RMK A01 T00631151  RH  020%=      5-min Rain = 0
KCL1 112128Z 02004KT 06/M15 A3011 RMK A01 T00611151  RH  020%=      5-min Rain = 0
KCL1 112129Z 02007KT 06/M15 A3011 RMK A01 T00611150  RH  020%=      5-min Rain = 0
KCL1 112130Z 01007KT 06/M15 A3011 RMK A01 T00621148  RH  020%=      5-min Rain = 0
KCL1 112131Z 01006KT 06/M15 A3011 RMK A01 T00641149  RH  020%=      5-min Rain = 0
KCL1 112132Z 02006KT 06/M15 A3011 RMK A01 T00641151  RH  020%=      5-min Rain = 0
KCL1 112133Z 03006KT 06/M15 A3011 RMK A01 T00621153  RH  020%=      5-min Rain = 0
KCL1 112134Z 34006KT 06/M15 A3011 RMK A01 T00621151  RH  020%=      5-min Rain = 0
KCL1 112135Z 33008KT 07/M15 A3011 RMK A01 T00651150  RH  020%=      5-min Rain = 0
KCL1 112136Z 33010KT 06/M15 A301 RMK A01 T00641153  RH  019%=      5-min Rain = 0
KCL1 112137Z 36009G14KT 07/M15 A3011 RMK A01 T00651152  RH  019%=      5-min Rain = 0
KCL1 112138Z 34008KT 07/M15 A3011 RMK A01 T00671150  RH  019%=      5-min Rain = 0
KCL1 112139Z 34006KT 07/M15 A3011 RMK A01 T00661152  RH  019%=      5-min Rain = 0
KCL1 112140Z 36005KT 07/M15 A3011 RMK A01 T00651153  RH  019%=      5-min Rain = 0
KCL1 112141Z 35008KT 07/M15 A3011 RMK A01 T00651152  RH  019%=      5-min Rain = 0
KCL1 112142Z 35007KT 07/M15 A3011 RMK A01 T00661153  RH  019%=      5-min Rain = 0
KCL1 112143Z 36005KT 06/M16 A3011 RMK A01 T00641155  RH  019%=      5-min Rain = 0
KCL1 112144Z 02003KT 06/M16 A3011 RMK A01 T00621158  RH  019%=      5-min Rain = 0
KCL1 112145Z 03003KT 06/M16 A3011 RMK A01 T00621157  RH  019%=      5-min Rain = 0
KCL1 112146Z 01004KT 06/M16 A3011 RMK A01 T00611157  RH  019%=      5-min Rain = 0
KCL1 112147Z 02005KT 06/M16 A3011 RMK A01 T00621155  RH  019%=      5-min Rain = 0
KCL1 112148Z 01004KT 06/M15 A3011 RMK A01 T00641154  RH  019%=      5-min Rain = 0
KCL1 112149Z 34004KT 06/M15 A3011 RMK A01 T00641154  RH  019%=      5-min Rain = 0
KCL1 112150Z 33006KT 07/M15 A3011 RMK A01 T00651153  RH  019%=      5-min Rain = 0
KCL1 112151Z 32005KT 07/M15 A3011 RMK A01 T00651154  RH  019%=      5-min Rain = 0
KCL1 112152Z 36004KT 07/M15 A3011 RMK A01 T00661152  RH  019%=      5-min Rain = 0
KCL1 112153Z 01004KT 07/M15 A3011 RMK A01 T00681154  RH  019%=      5-min Rain = 0
KCL1 112154Z 35003KT 07/M16 A3011 RMK A01 T00681157  RH  018%=      5-min Rain = 0
KCL1 112155Z 32007KT 07/M16 A3011 RMK A01 T00691156  RH  018%=      5-min Rain = 0
KCL1 112156Z 35006KT 07/M16 A3011 RMK A01 T00671157  RH  018%=      5-min Rain = 0
KCL1 112157Z 32007KT 07/M15 A3011 RMK A01 T00681154  RH  019%=      5-min Rain = 0
KCL1 112158Z 33007KT 07/M15 A3011 RMK A01 T00701153  RH  019%=      5-min Rain = 0
KCL1 112159Z 33008KT 07/M15 A3011 RMK A01 T00691154  RH  019%=      5-min Rain = 0
KCL1 112200Z 33008KT 07/M16 A3011 RMK A01 T00691155  RH  018%=      5-min Rain = 0
KCL1 112201Z 32007KT 07/M16 A3011 RMK A01 T00671157  RH  018%=      5-min Rain = 0
KCL1 112202Z 34005KT 07/M16 A3011 RMK A01 T00661157  RH  019%=      5-min Rain = 0
KCL1 112203Z 00004KT 07/M16 A3011 RMK A01 T00661157  RH  019%=      5-min Rain = 0
KCL1 112204Z 03002KT 07/M16 A3011 RMK A01 T00661158  RH  018%=      5-min Rain = 0
KCL1 112205Z 00004KT 07/M16 A3011 RMK A01 T00661158  RH  018%=      5-min Rain = 0
KCL1 112206Z 34006KT 07/M16 A3011 RMK A01 T00651160  RH  018%=      5-min Rain = 0
KCL1 112207Z 32006KT 07/M16 A3011 RMK A01 T00651159  RH  018%=      5-min Rain = 0
KCL1 112208Z 35006KT 07/M16 A3011 RMK A01 T00681156  RH  019%=      5-min Rain = 0
KCL1 112209Z 35008KT 07/M16 A3011 RMK A01 T00681158  RH  018%=      5-min Rain = 0
KCL1 112210Z 35007KT 07/M16 A3011 RMK A01 T00661160  RH  018%=      5-min Rain = 0
KCL1 112211Z 02005KT 07/M16 A3011 RMK A01 T00651160  RH  018%=      5-min Rain = 0
KCL1 112212Z 01004KT 06/M16 A3011 RMK A01 T00641160  RH  018%=      5-min Rain = 0
KCL1 112213Z 33006KT 06/M16 A3011 RMK A01 T00641159  RH  019%=      5-min Rain = 0
KCL1 112214Z 35007KT 07/M16 A3011 RMK A01 T00671156  RH  019%=      5-min Rain = 0
KCL1 112215Z 34006KT 07/M16 A3011 RMK A01 T00671158  RH  018%=      5-min Rain = 0
KCL1 112216Z 34006KT 07/M16 A3011 RMK A01 T00651158  RH  018%=      5-min Rain = 0
KCL1 112217Z 35004KT 07/M16 A3011 RMK A01 T00651158  RH  019%=      5-min Rain = 0
KCL1 112218Z 33005KT 07/M16 A3011 RMK A01 T00651159  RH  018%=      5-min Rain = 0
KCL1 112219Z 31004KT 06/M16 A3011 RMK A01 T00641159  RH  019%=      5-min Rain = 0
KCL1 112220Z 30006KT 07/M16 A3011 RMK A01 T00661157  RH  019%=      5-min Rain = 0
KCL1 112221Z 31007KT 07/M16 A3011 RMK A01 T00671157  RH  019%=      5-min Rain = 0
KCL1 112222Z 33006KT 07/M16 A3011 RMK A01 T00671156  RH  018%=      5-min Rain = 0
KCL1 112223Z 34004KT 07/M16 A3011 RMK A01 T00681156  RH  018%=      5-min Rain = 0
KCL1 112224Z 00008G13KT 07/M16 A3011 RMK A01 T00691156  RH  018%=      5-min Rain = 0
KCL1 112225Z 01007KT 07/M16 A3011 RMK A01 T00691157  RH  018%=      5-min Rain = 0
KCL1 112226Z 02007KT 07/M16 A3011 RMK A01 T00681161  RH  018%=      5-min Rain = 0
KCL1 112227Z 02004KT 07/M16 A3011 RMK A01 T00661163  RH  018%=      5-min Rain = 0
KCL1 112228Z 35004KT 07/M16 A3011 RMK A01 T00651163  RH  018%=      5-min Rain = 0
KCL1 112229Z 35004KT 06/M16 A3011 RMK A01 T00641163  RH  018%=      5-min Rain = 0
KCL1 112230Z 35002KT 06/M16 A3011 RMK A01 T00641162  RH  018%=      5-min Rain = 0
KCL1 112231Z 33005KT 07/M16 A3011 RMK A01 T00661160  RH  018%=      5-min Rain = 0
KCL1 112232Z 32007KT 07/M16 A3011 RMK A01 T00671159  RH  018%=      5-min Rain = 0
KCL1 112233Z 30006KT 07/M16 A3011 RMK A01 T00671160  RH  018%=      5-min Rain = 0
KCL1 112234Z 31005KT 07/M16 A3011 RMK A01 T00671160  RH  018%=      5-min Rain = 0
KCL1 112235Z 33005KT 07/M16 A3011 RMK A01 T00681158  RH  018%=      5-min Rain = 0
KCL1 112236Z 36004KT 07/M16 A3011 RMK A01 T00681160  RH  018%=      5-min Rain = 0
KCL1 112237Z 00006KT 07/M16 A3011 RMK A01 T00661162  RH  018%=      5-min Rain = 0
KCL1 112238Z 36007KT 07/M16 A3011 RMK A01 T00651163  RH  018%=      5-min Rain = 0
KCL1 112239Z 35006KT 07/M16 A3011 RMK A01 T00651163  RH  018%=      5-min Rain = 0
KCL1 112240Z 36006KT 07/M16 A3012 RMK A01 T00661162  RH  018%=      5-min Rain = 0
KCL1 112241Z 35007KT 07/M16 A3012 RMK A01 T00661162  RH  018%=      5-min Rain = 0
KCL1 112242Z 35008KT 07/M16 A3012 RMK A01 T00661163  RH  018%=      5-min Rain = 0
KCL1 112243Z 00005KT 07/M16 A3012 RMK A01 T00651164  RH  018%=      5-min Rain = 0
KCL1 112244Z 35004KT 06/M16 A3012 RMK A01 T00641164  RH  018%=      5-min Rain = 0
KCL1 112245Z 01004KT 06/M16 A3012 RMK A01 T00641163  RH  018%=      5-min Rain = 0
KCL1 112246Z 35005KT 07/M16 A3012 RMK A01 T00651163  RH  018%=      5-min Rain = 0
KCL1 112247Z 34006KT 07/M16 A3012 RMK A01 T00651162  RH  018%=      5-min Rain = 0
KCL1 112248Z 33008KT 07/M16 A3012 RMK A01 T00661162  RH  018%=      5-min Rain = 0
KCL1 112249Z 32007KT 07/M16 A3012 RMK A01 T00671162  RH  018%=      5-min Rain = 0
KCL1 112250Z 33007KT 07/M16 A3012 RMK A01 T00661163  RH  018%=      5-min Rain = 0
KCL1 112251Z 33007KT 07/M16 A3012 RMK A01 T00651163  RH  018%=      5-min Rain = 0
KCL1 112252Z 34005KT 06/M16 A3012 RMK A01 T00641163  RH  018%=      5-min Rain = 0
KCL1 112253Z 34004KT 06/M16 A3012 RMK A01 T00641163  RH  018%=      5-min Rain = 0
KCL1 112254Z 36004KT 06/M16 A3012 RMK A01 T00641163  RH  018%=      5-min Rain = 0
KCL1 112255Z 36003KT 06/M16 A3012 RMK A01 T00641163  RH  018%=      5-min Rain = 0
KCL1 112256Z 00003KT 06/M16 A3012 RMK A01 T00641163  RH  018%=      5-min Rain = 0
KCL1 112257Z 04003KT 06/M16 A3012 RMK A01 T00641162  RH  018%=      5-min Rain = 0
KCL1 112258Z 04004KT 06/M16 A3012 RMK A01 T00641163  RH  018%=      5-min Rain = 0
KCL1 112259Z 05002KT 06/M16 A3012 RMK A01 T00641163  RH  018%=      5-min Rain = 0
KCL1 112300Z 06004KT 06/M16 A3012 RMK A01 T00641162  RH  018%=      5-min Rain = 0
KCL1 112301Z 04003KT 07/M16 A3012 RMK A01 T00651162  RH  018%=      5-min Rain = 0
KCL1 112302Z 06004KT 07/M16 A3012 RMK A01 T00651164  RH  018%=      5-min Rain = 0
KCL1 112303Z 05004KT 07/M16 A3012 RMK A01 T00651164  RH  018%=      5-min Rain = 0
KCL1 112304Z 06004KT 07/M16 A3012 RMK A01 T00651164  RH  018%=      5-min Rain = 0
KCL1 112305Z 00007KT 07/M16 A3012 RMK A01 T00651164  RH  018%=      5-min Rain = 0
KCL1 112306Z 34005KT 07/M16 A3012 RMK A01 T00651164  RH  018%=      5-min Rain = 0
KCL1 112307Z 35005KT 07/M16 A3012 RMK A01 T00661164  RH  018%=      5-min Rain = 0
KCL1 112308Z 35006KT 07/M16 A3012 RMK A01 T00661164  RH  018%=      5-min Rain = 0
KCL1 112309Z 35005KT 07/M16 A3012 RMK A01 T00661164  RH  017%=      5-min Rain = 0
KCL1 112310Z 36006KT 07/M16 A3012 RMK A01 T00661164  RH  017%=      5-min Rain = 0
KCL1 112311Z 01003KT 07/M17 A3012 RMK A01 T00651166  RH  017%=      5-min Rain = 0
KCL1 112312Z 34003KT 06/M17 A3013 RMK A01 T00641166  RH  017%=      5-min Rain = 0
KCL1 112313Z 32004KT 06/M17 A3013 RMK A01 T00641165  RH  018%=      5-min Rain = 0
KCL1 112314Z 31004KT 06/M17 A3013 RMK A01 T00641165  RH  018%=      5-min Rain = 0
KCL1 112315Z 32003KT 07/M17 A3013 RMK A01 T00651165  RH  018%=      5-min Rain = 0
KCL1 112316Z 03005KT 07/M16 A3013 RMK A01 T00651164  RH  018%=      5-min Rain = 0
KCL1 112317Z 02006KT 07/M16 A3013 RMK A01 T00651164  RH  018%=      5-min Rain = 0
KCL1 112318Z 02005KT 06/M17 A3013 RMK A01 T00641165  RH  018%=      5-min Rain = 0
KCL1 112319Z 02004KT 06/M17 A3013 RMK A01 T00641165  RH  018%=      5-min Rain = 0
KCL1 112320Z 01004KT 06/M16 A3013 RMK A01 T00641164  RH  018%=      5-min Rain = 0
KCL1 112321Z 02004KT 06/M16 A3012 RMK A01 T00641164  RH  018%=      5-min Rain = 0
KCL1 112322Z 36004KT 06/M16 A3012 RMK A01 T00641164  RH  018%=      5-min Rain = 0
KCL1 112323Z 02004KT 06/M17 A3012 RMK A01 T00631165  RH  018%=      5-min Rain = 0
KCL1 112324Z 03004KT 06/M17 A3012 RMK A01 T00631165  RH  018%=      5-min Rain = 0
KCL1 112325Z 01003KT 06/M17 A3012 RMK A01 T00621166  RH  018%=      5-min Rain = 0
KCL1 112326Z 35002KT 06/M17 A3012 RMK A01 T00611165  RH  018%=      5-min Rain = 0
KCL1 112327Z 35001KT 06/M17 A3012 RMK A01 T00621165  RH  018%=      5-min Rain = 0
KCL1 112328Z 05001KT 06/M17 A3012 RMK A01 T00621165  RH  018%=      5-min Rain = 0
KCL1 112329Z 05003KT 06/M17 A3012 RMK A01 T00621165  RH  018%=      5-min Rain = 0
KCL1 112330Z 04002KT 06/M17 A3012 RMK A01 T00621165  RH  018%=      5-min Rain = 0
KCL1 112331Z 04001KT 06/M17 A3013 RMK A01 T00621165  RH  018%=      5-min Rain = 0
KCL1 112332Z 04005KT 06/M17 A3013 RMK A01 T00611165  RH  018%=      5-min Rain = 0
KCL1 112333Z 03005KT 06/M17 A3013 RMK A01 T00611166  RH  018%=      5-min Rain = 0
KCL1 112334Z 04004KT 06/M17 A3013 RMK A01 T00611166  RH  018%=      5-min Rain = 0
KCL1 112335Z 04004KT 06/M17 A3013 RMK A01 T00601166  RH  018%=      5-min Rain = 0
KCL1 112336Z 04004KT 06/M17 A3013 RMK A01 T00601166  RH  018%=      5-min Rain = 0
KCL1 112337Z 03004KT 06/M17 A3012 RMK A01 T00601166  RH  018%=      5-min Rain = 0
KCL1 112338Z 01003KT 06/M17 A3012 RMK A01 T00601166  RH  018%=      5-min Rain = 0
KCL1 112339Z 02003KT 06/M17 A3013 RMK A01 T00601166  RH  018%=      5-min Rain = 0
KCL1 112340Z 02002KT 06/M17 A3013 RMK A01 T00601166  RH  018%=      5-min Rain = 0
KCL1 112341Z 02003KT 06/M17 A3013 RMK A01 T00601166  RH  018%=      5-min Rain = 0
KCL1 112342Z 03003KT 06/M17 A3013 RMK A01 T00601166  RH  018%=      5-min Rain = 0
KCL1 112343Z 03002KT 06/M17 A3013 RMK A01 T00601166  RH  018%=      5-min Rain = 0
KCL1 112344Z 03002KT 06/M17 A3013 RMK A01 T00601166  RH  018%=      5-min Rain = 0
KCL1 112345Z 04002KT 06/M17 A3013 RMK A01 T00601166  RH  018%=      5-min Rain = 0
KCL1 112346Z 04002KT 06/M17 A3013 RMK A01 T00591167  RH  018%=      5-min Rain = 0
KCL1 112347Z 04003KT 06/M17 A3013 RMK A01 T00591167  RH  018%=      5-min Rain = 0
KCL1 112348Z 05003KT 06/M17 A3013 RMK A01 T00591167  RH  018%=      5-min Rain = 0
KCL1 112349Z 05004KT 06/M17 A3013 RMK A01 T00581167  RH  018%=      5-min Rain = 0
KCL1 112350Z 04004KT 06/M17 A3013 RMK A01 T00571168  RH  018%=      5-min Rain = 0
KCL1 112351Z 03004KT 06/M17 A3013 RMK A01 T00561168  RH  018%=      5-min Rain = 0
KCL1 112352Z 04004KT 06/M17 A3013 RMK A01 T00561167  RH  018%=      5-min Rain = 0
KCL1 112353Z 03004KT 06/M17 A3013 RMK A01 T00561167  RH  018%=      5-min Rain = 0
KCL1 112354Z 03005KT 06/M17 A3013 RMK A01 T00551168  RH  018%=      5-min Rain = 0
KCL1 112355Z 03004KT 05/M17 A3013 RMK A01 T00541167  RH  018%=      5-min Rain = 0
KCL1 112356Z 02004KT 05/M17 A3013 RMK A01 T00541167  RH  019%=      5-min Rain = 0
KCL1 112357Z 03004KT 05/M17 A3013 RMK A01 T00531167  RH  019%=      5-min Rain = 0
KCL1 112358Z 02004KT 05/M17 A3013 RMK A01 T00531167  RH  019%=      5-min Rain = 0
KCL1 112359Z 03004KT 05/M17 A3013 RMK A01 T00521167  RH  019%=      5-min Rain = 0
KCL1 120000Z 03004KT 05/M17 A3013 RMK A01 T00511167  RH  019%=      5-min Rain = 0
KCL1 120001Z 04005KT 05/M17 A3013 RMK A01 T00501167  RH  019%=      5-min Rain = 0
KCL1 120002Z 03004KT 05/M17 A3013 RMK A01 T00491168  RH  019%=      5-min Rain = 0
KCL1 120003Z 03004KT 05/M17 A3013 RMK A01 T00481168  RH  019%=      5-min Rain = 0
KCL1 120004Z 03005KT 05/M17 A3013 RMK A01 T00471169  RH  019%=      5-min Rain = 0
KCL1 120005Z 03005KT 05/M17 A3013 RMK A01 T00461169  RH  019%=      5-min Rain = 0
KCL1 120006Z 03005KT 05/M17 A3013 RMK A01 T00451169  RH  019%=      5-min Rain = 0
KCL1 120007Z 03004KT 05/M17 A3013 RMK A01 T00451169  RH  019%=      5-min Rain = 0
KCL1 120008Z 04004KT 04/M17 A3013 RMK A01 T00441169  RH  019%=      5-min Rain = 0
KCL1 120009Z 04004KT 04/M17 A3013 RMK A01 T00441169  RH  020%=      5-min Rain = 0
KCL1 120010Z 05004KT 04/M17 A3013 RMK A01 T00431170  RH  020%=      5-min Rain = 0
KCL1 120011Z 05004KT 04/M17 A3013 RMK A01 T00431169  RH  020%=      5-min Rain = 0
KCL1 120012Z 05004KT 04/M17 A3013 RMK A01 T00431169  RH  020%=      5-min Rain = 0
KCL1 120013Z 04004KT 04/M17 A3013 RMK A01 T00431169  RH  020%=      5-min Rain = 0
KCL1 120014Z 04004KT 04/M17 A3013 RMK A01 T00421169  RH  020%=      5-min Rain = 0
KCL1 120015Z 03004KT 04/M17 A3013 RMK A01 T00421169  RH  020%=      5-min Rain = 0
KCL1 120016Z 03004KT 04/M17 A3013 RMK A01 T00421169  RH  020%=      5-min Rain = 0
KCL1 120017Z 03004KT 04/M17 A3013 RMK A01 T00421169  RH  020%=      5-min Rain = 0
KCL1 120018Z 03004KT 04/M17 A3013 RMK A01 T00421169  RH  020%=      5-min Rain = 0
KCL1 120019Z 04004KT 04/M17 A3013 RMK A01 T00421169  RH  020%=      5-min Rain = 0
KCL1 120020Z 04004KT 04/M17 A3013 RMK A01 T00411169  RH  020%=      5-min Rain = 0
KCL1 120021Z 04004KT 04/M17 A3013 RMK A01 T00411169  RH  020%=      5-min Rain = 0
KCL1 120022Z 05004KT 04/M17 A3013 RMK A01 T00401169  RH  020%=      5-min Rain = 0
KCL1 120023Z 05004KT 04/M17 A3013 RMK A01 T00391170  RH  020%=      5-min Rain = 0
KCL1 120024Z 05004KT 04/M17 A3013 RMK A01 T00381170  RH  020%=      5-min Rain = 0
KCL1 120025Z 05004KT 04/M17 A3013 RMK A01 T00371169  RH  020%=      5-min Rain = 0
KCL1 120026Z 05004KT 04/M17 A3013 RMK A01 T00361170  RH  021%=      5-min Rain = 0
KCL1 120027Z 06004KT 04/M17 A3013 RMK A01 T00361170  RH  021%=      5-min Rain = 0
KCL1 120028Z 06004KT 04/M17 A3013 RMK A01 T00351170  RH  021%=      5-min Rain = 0
KCL1 120029Z 06004KT 03/M17 A3013 RMK A01 T00341170  RH  021%=      5-min Rain = 0
KCL1 120030Z 06004KT 03/M17 A3013 RMK A01 T00331170  RH  021%=      5-min Rain = 0
KCL1 120031Z 06004KT 03/M17 A3013 RMK A01 T00321170  RH  021%=      5-min Rain = 0
KCL1 120032Z 06004KT 03/M17 A3013 RMK A01 T00321170  RH  021%=      5-min Rain = 0
KCL1 120033Z 06004KT 03/M17 A3013 RMK A01 T00311170  RH  021%=      5-min Rain = 0
KCL1 120034Z 06004KT 03/M17 A3013 RMK A01 T00311170  RH  021%=      5-min Rain = 0
KCL1 120035Z 06004KT 03/M17 A3013 RMK A01 T00301170  RH  021%=      5-min Rain = 0
KCL1 120036Z 05004KT 03/M17 A3013 RMK A01 T00301170  RH  021%=      5-min Rain = 0
KCL1 120037Z 06004KT 03/M17 A3013 RMK A01 T00291170  RH  022%=      5-min Rain = 0
KCL1 120038Z 06004KT 03/M17 A3014 RMK A01 T00291169  RH  022%=      5-min Rain = 0
KCL1 120039Z 05004KT 03/M17 A3014 RMK A01 T00291169  RH  022%=      5-min Rain = 0
KCL1 120040Z 06004KT 03/M17 A3014 RMK A01 T00291170  RH  022%=      5-min Rain = 0
KCL1 120041Z 06004KT 03/M17 A3014 RMK A01 T00291170  RH  022%=      5-min Rain = 0
KCL1 120042Z 06004KT 03/M17 A3014 RMK A01 T00281170  RH  022%=      5-min Rain = 0
KCL1 120043Z 06004KT 03/M17 A3014 RMK A01 T00281170  RH  022%=      5-min Rain = 0
KCL1 120044Z 06004KT 03/M17 A3014 RMK A01 T00281170  RH  022%=      5-min Rain = 0
KCL1 120045Z 06004KT 03/M17 A3014 RMK A01 T00281170  RH  022%=      5-min Rain = 0
KCL1 120046Z 06004KT 03/M17 A3014 RMK A01 T00281170  RH  022%=      5-min Rain = 0
KCL1 120047Z 07004KT 03/M17 A3014 RMK A01 T00291169  RH  022%=      5-min Rain = 0
KCL1 120048Z 07004KT 03/M17 A3014 RMK A01 T00291170  RH  022%=      5-min Rain = 0
KCL1 120049Z 07004KT 03/M17 A3014 RMK A01 T00291170  RH  022%=      5-min Rain = 0
KCL1 120050Z 07004KT 03/M17 A3014 RMK A01 T00281171  RH  022%=      5-min Rain = 0
KCL1 120051Z 07005KT 03/M17 A3014 RMK A01 T00261172  RH  022%=      5-min Rain = 0
KCL1 120052Z 07005KT 03/M17 A3014 RMK A01 T00251171  RH  022%=      5-min Rain = 0
KCL1 120053Z 07005KT 02/M17 A3014 RMK A01 T00241172  RH  022%=      5-min Rain = 0
KCL1 120054Z 07006KT 02/M17 A3014 RMK A01 T00231172  RH  022%=      5-min Rain = 0
KCL1 120055Z 07005KT 02/M17 A3014 RMK A01 T00221172  RH  022%=      5-min Rain = 0
KCL1 120056Z 08006KT 02/M17 A3014 RMK A01 T00211172  RH  022%=      5-min Rain = 0
KCL1 120057Z 08006KT 02/M17 A3014 RMK A01 T00201172  RH  023%=      5-min Rain = 0
KCL1 120058Z 08005KT 02/M17 A3014 RMK A01 T00201171  RH  023%=      5-min Rain = 0
KCL1 120059Z 08005KT 02/M17 A3015 RMK A01 T00191172  RH  023%=      5-min Rain = 0
KCL1 120100Z 09006KT 02/M17 A3015 RMK A01 T00181172  RH  023%=      5-min Rain = 0
KCL1 120101Z 08006KT 02/M17 A3014 RMK A01 T00171173  RH  023%=      5-min Rain = 0
KCL1 120102Z 09006KT 02/M17 A3014 RMK A01 T00161173  RH  023%=      5-min Rain = 0
KCL1 120103Z 08006KT 01/M17 A3014 RMK A01 T00141174  RH  023%=      5-min Rain = 0
KCL1 120104Z 08006KT 01/M17 A3014 RMK A01 T00141173  RH  023%=      5-min Rain = 0
KCL1 120105Z 09006KT 01/M17 A3014 RMK A01 T00141173  RH  023%=      5-min Rain = 0
KCL1 120106Z 09006KT 01/M17 A3014 RMK A01 T00141173  RH  023%=      5-min Rain = 0
KCL1 120107Z 10007KT 02/M17 A3014 RMK A01 T00151173  RH  023%=      5-min Rain = 0
KCL1 120108Z 10007KT 01/M17 A3015 RMK A01 T00141174  RH  023%=      5-min Rain = 0
KCL1 120109Z 09007KT 01/M18 A3015 RMK A01 T00131175  RH  023%=      5-min Rain = 0
KCL1 120110Z 09007KT 01/M18 A3015 RMK A01 T00121175  RH  023%=      5-min Rain = 0
KCL1 120111Z 09007KT 01/M17 A3015 RMK A01 T00111174  RH  024%=      5-min Rain = 0
KCL1 120112Z 10007KT 01/M18 A3015 RMK A01 T00101175  RH  024%=      5-min Rain = 0
KCL1 120113Z 10007KT 01/M18 A3015 RMK A01 T00081176  RH  024%=      5-min Rain = 0
KCL1 120114Z 11007KT 01/M18 A3015 RMK A01 T00071176  RH  024%=      5-min Rain = 0
KCL1 120115Z 10008KT 01/M18 A3015 RMK A01 T00061176  RH  024%=      5-min Rain = 0
KCL1 120116Z 10008KT 01/M18 A3015 RMK A01 T00051176  RH  024%=      5-min Rain = 0
KCL1 120117Z 11008KT 00/M18 A3015 RMK A01 T00041176  RH  025%=      5-min Rain = 0
KCL1 120118Z 10008KT 00/M18 A3015 RMK A01 T00031176  RH  025%=      5-min Rain = 0
KCL1 120119Z 10008KT 00/M18 A3015 RMK A01 T00021176  RH  025%=      5-min Rain = 0
KCL1 120120Z 10008KT 00/18 A3015 RMK A01 T00000-176  RH  025%=      5-min Rain = 0
KCL1 120121Z 10008KT M00/M18 A3015 RMK A01 T10011177  RH  025%=      5-min Rain = 0
KCL1 120122Z 10008KT M00/M18 A3015 RMK A01 T10031178  RH  025%=      5-min Rain = 0
KCL1 120123Z 10008KT M00/M18 A3015 RMK A01 T10041177  RH  026%=      5-min Rain = 0
KCL1 120124Z 11008KT M01/M18 A3015 RMK A01 T10051177  RH  026%=      5-min Rain = 0
KCL1 120125Z 11009KT M01/M18 A3015 RMK A01 T10051177  RH  026%=      5-min Rain = 0
KCL1 120126Z 10009KT M01/M18 A3015 RMK A01 T10051177  RH  026%=      5-min Rain = 0
KCL1 120127Z 10009KT M01/M18 A3015 RMK A01 T10051176  RH  026%=      5-min Rain = 0
KCL1 120128Z 10009KT M01/M18 A3015 RMK A01 T10051176  RH  026%=      5-min Rain = 0
KCL1 120129Z 10009KT M01/M18 A3015 RMK A01 T10051176  RH  026%=      5-min Rain = 0
KCL1 120130Z 10009KT M01/M18 A3015 RMK A01 T10051176  RH  026%=      5-min Rain = 0
KCL1 120131Z 10009KT M01/M18 A3015 RMK A01 T10051176  RH  026%=      5-min Rain = 0
KCL1 120132Z 09009KT M01/M18 A3015 RMK A01 T10051176  RH  026%=      5-min Rain = 0
KCL1 120133Z 09009KT M01/M18 A3015 RMK A01 T10051176  RH  026%=      5-min Rain = 0
KCL1 120134Z 09009KT M01/M18 A3015 RMK A01 T10051176  RH  026%=      5-min Rain = 0
KCL1 120135Z 09009KT M01/M18 A3015 RMK A01 T10051176  RH  026%=      5-min Rain = 0
KCL1 120136Z 09009KT M01/M18 A3015 RMK A01 T10051176  RH  026%=      5-min Rain = 0
KCL1 120137Z 09010KT M01/M18 A3015 RMK A01 T10051176  RH  026%=      5-min Rain = 0
KCL1 120138Z 09010KT M01/M18 A3015 RMK A01 T10051176  RH  026%=      5-min Rain = 0
KCL1 120139Z 09010KT M01/M18 A3015 RMK A01 T10051177  RH  026%=      5-min Rain = 0
KCL1 120140Z 09010KT M01/M18 A3015 RMK A01 T10051177  RH  026%=      5-min Rain = 0
KCL1 120141Z 09010KT M01/M18 A3015 RMK A01 T10061178  RH  026%=      5-min Rain = 0
KCL1 120142Z 09010KT M01/M18 A3015 RMK A01 T10071178  RH  026%=      5-min Rain = 0
KCL1 120143Z 09010KT M01/M18 A3015 RMK A01 T10081178  RH  026%=      5-min Rain = 0
KCL1 120144Z 10010KT M01/M18 A3015 RMK A01 T10091178  RH  026%=      5-min Rain = 0
KCL1 120145Z 10010KT M01/M18 A3015 RMK A01 T10101178  RH  027%=      5-min Rain = 0
KCL1 120146Z 10010KT M01/M18 A3015 RMK A01 T10111178  RH  027%=      5-min Rain = 0
KCL1 120147Z 10009KT M01/M18 A3015 RMK A01 T10111178  RH  027%=      5-min Rain = 0
KCL1 120148Z 10009KT M01/M18 A3015 RMK A01 T10111178  RH  027%=      5-min Rain = 0
KCL1 120149Z 10010KT M01/M18 A3015 RMK A01 T10121178  RH  027%=      5-min Rain = 0
KCL1 120150Z 10010KT M01/M18 A3016 RMK A01 T10111177  RH  027%=      5-min Rain = 0
KCL1 120151Z 10010KT M01/M18 A3016 RMK A01 T10121177  RH  027%=      5-min Rain = 0
KCL1 120152Z 10010KT M01/M18 A3016 RMK A01 T10111177  RH  027%=      5-min Rain = 0
KCL1 120153Z 10010KT M01/M18 A3016 RMK A01 T10111177  RH  027%=      5-min Rain = 0
KCL1 120154Z 10010KT M01/M18 A3016 RMK A01 T10121178  RH  027%=      5-min Rain = 0
KCL1 120155Z 10010KT M01/M18 A3016 RMK A01 T10131178  RH  027%=      5-min Rain = 0
KCL1 120156Z 10009KT M01/M18 A3016 RMK A01 T10141179  RH  027%=      5-min Rain = 0
KCL1 120157Z 10009KT M02/M18 A3016 RMK A01 T10161179  RH  028%=      5-min Rain = 0
KCL1 120158Z 10010KT M02/M18 A3016 RMK A01 T10161179  RH  028%=      5-min Rain = 0
KCL1 120159Z 10010KT M02/M18 A3016 RMK A01 T10161178  RH  028%=      5-min Rain = 0
KCL1 120200Z 10010KT M02/M18 A3016 RMK A01 T10161178  RH  028%=      5-min Rain = 0
KCL1 120201Z 10010KT M02/M18 A3016 RMK A01 T10161178  RH  028%=      5-min Rain = 0
KCL1 120202Z 10010KT M02/M18 A3016 RMK A01 T10161178  RH  028%=      5-min Rain = 0
KCL1 120203Z 10010KT M02/M18 A3016 RMK A01 T10161178  RH  028%=      5-min Rain = 0
KCL1 120204Z 10010KT M02/M18 A3016 RMK A01 T10161179  RH  028%=      5-min Rain = 0
KCL1 120205Z 10010KT M02/M18 A3016 RMK A01 T10171179  RH  028%=      5-min Rain = 0
KCL1 120206Z 10010KT M02/M18 A3016 RMK A01 T10171179  RH  028%=      5-min Rain = 0
KCL1 120207Z 10010KT M02/M18 A3016 RMK A01 T10171179  RH  028%=      5-min Rain = 0
KCL1 120208Z 11010KT M02/M18 A3016 RMK A01 T10181179  RH  028%=      5-min Rain = 0
KCL1 120209Z 11010KT M02/M18 A3016 RMK A01 T10191179  RH  028%=      5-min Rain = 0
KCL1 120210Z 11009KT M02/M18 A3017 RMK A01 T10201180  RH  028%=      5-min Rain = 0
KCL1 120211Z 11009KT M02/M18 A3017 RMK A01 T10201180  RH  028%=      5-min Rain = 0
KCL1 120212Z 11009KT M02/M18 A3017 RMK A01 T10211180  RH  029%=      5-min Rain = 0
KCL1 120213Z 11008KT M02/M18 A3017 RMK A01 T10211180  RH  029%=      5-min Rain = 0
KCL1 120214Z 11008KT M02/M18 A3017 RMK A01 T10211179  RH  029%=      5-min Rain = 0
KCL1 120215Z 11008KT M02/M18 A3017 RMK A01 T10211179  RH  029%=      5-min Rain = 0
KCL1 120216Z 11008KT M02/M18 A3017 RMK A01 T10211179  RH  029%=      5-min Rain = 0
KCL1 120217Z 11008KT M02/M18 A3017 RMK A01 T10211178  RH  029%=      5-min Rain = 0
KCL1 120218Z 11008KT M02/M18 A3017 RMK A01 T10211178  RH  029%=      5-min Rain = 0
KCL1 120219Z 12008KT M02/M18 A3017 RMK A01 T10201178  RH  029%=      5-min Rain = 0
KCL1 120220Z 12008KT M02/M18 A3017 RMK A01 T10201178  RH  029%=      5-min Rain = 0
KCL1 120221Z 14009KT M02/M18 A3017 RMK A01 T10201179  RH  029%=      5-min Rain = 0
KCL1 120222Z 16010KT M02/M18 A3018 RMK A01 T10221179  RH  029%=      5-min Rain = 0
KCL1 120223Z 16008KT M02/M18 A3018 RMK A01 T10211177  RH  029%=      5-min Rain = 0
KCL1 120224Z 16008KT M02/M17 A3018 RMK A01 T10181174  RH  029%=      5-min Rain = 0
KCL1 120225Z 17007KT M02/M17 A3018 RMK A01 T10151173  RH  029%=      5-min Rain = 0
KCL1 120226Z 16007KT M01/M17 A3018 RMK A01 T10141174  RH  029%=      5-min Rain = 0
KCL1 120227Z 16007KT M01/M17 A3018 RMK A01 T10131173  RH  028%=      5-min Rain = 0
KCL1 120228Z 15007KT M01/M17 A3018 RMK A01 T10131174  RH  028%=      5-min Rain = 0
KCL1 120229Z 15006KT M01/M17 A3018 RMK A01 T10131174  RH  028%=      5-min Rain = 0
KCL1 120230Z 15006KT M01/M17 A3018 RMK A01 T10091172  RH  028%=      5-min Rain = 0
KCL1 120231Z 15006KT M01/M17 A3018 RMK A01 T10071171  RH  028%=      5-min Rain = 0
KCL1 120232Z 15007KT M00/M17 A3018 RMK A01 T10041170  RH  027%=      5-min Rain = 0
KCL1 120233Z 14007KT M00/M17 A3018 RMK A01 T10011169  RH  027%=      5-min Rain = 0
KCL1 120234Z 14006KT 00/M17 A3018 RMK A01 T00011169  RH  027%=      5-min Rain = 0
KCL1 120235Z 14007KT 00/M17 A3018 RMK A01 T00011170  RH  026%=      5-min Rain = 0
KCL1 120236Z 14007KT 00/17 A3018 RMK A01 T00-00-172  RH  026%=      5-min Rain = 0
KCL1 120237Z 14007KT M00/M17 A3018 RMK A01 T10021173  RH  026%=      5-min Rain = 0
KCL1 120238Z 14007KT M00/M17 A3018 RMK A01 T10021173  RH  026%=      5-min Rain = 0
KCL1 120239Z 14008KT M00/M17 A3018 RMK A01 T10031172  RH  026%=      5-min Rain = 0
KCL1 120240Z 14008KT M00/M17 A3018 RMK A01 T10021172  RH  027%=      5-min Rain = 0
KCL1 120241Z 13008KT M00/M17 A3018 RMK A01 T10031172  RH  027%=      5-min Rain = 0
KCL1 120242Z 13008KT M00/M17 A3018 RMK A01 T10041173  RH  027%=      5-min Rain = 0
KCL1 120243Z 13008KT M01/M17 A3018 RMK A01 T10051174  RH  027%=      5-min Rain = 0
KCL1 120244Z 13008KT M01/M17 A3018 RMK A01 T10061174  RH  027%=      5-min Rain = 0
KCL1 120245Z 13009KT M01/M18 A3018 RMK A01 T10081175  RH  027%=      5-min Rain = 0
KCL1 120246Z 13009KT M01/M17 A3018 RMK A01 T10091174  RH  027%=      5-min Rain = 0
KCL1 120247Z 13008KT M01/M17 A3018 RMK A01 T10091174  RH  027%=      5-min Rain = 0
KCL1 120248Z 13008KT M01/M17 A3018 RMK A01 T10101174  RH  027%=      5-min Rain = 0
KCL1 120249Z 13009KT M01/M17 A3018 RMK A01 T10101174  RH  028%=      5-min Rain = 0
KCL1 120250Z 13009KT M01/M18 A3018 RMK A01 T10111175  RH  028%=      5-min Rain = 0
KCL1 120251Z 13009KT M01/M17 A3018 RMK A01 T10121174  RH  028%=      5-min Rain = 0
KCL1 120252Z 13009KT M01/M17 A3018 RMK A01 T10111174  RH  028%=      5-min Rain = 0
KCL1 120253Z 13009KT M01/M17 A3018 RMK A01 T10121174  RH  028%=      5-min Rain = 0
KCL1 120254Z 13009KT M01/M17 A3018 RMK A01 T10121173  RH  028%=      5-min Rain = 0
KCL1 120255Z 13009KT M01/M17 A3018 RMK A01 T10121173  RH  028%=      5-min Rain = 0
KCL1 120256Z 13008KT M01/M17 A3018 RMK A01 T10131173  RH  029%=      5-min Rain = 0
KCL1 120257Z 13007KT M01/M17 A3018 RMK A01 T10141172  RH  029%=      5-min Rain = 0
KCL1 120258Z 13005KT M02/M17 A3018 RMK A01 T10151173  RH  029%=      5-min Rain = 0
KCL1 120259Z 13005KT M02/M17 A3018 RMK A01 T10161173  RH  029%=      5-min Rain = 0
KCL1 120300Z 12006KT M02/M17 A3018 RMK A01 T10171174  RH  029%=      5-min Rain = 0
KCL1 120301Z 12006KT M02/M18 A3018 RMK A01 T10191175  RH  029%=      5-min Rain = 0
KCL1 120302Z 12007KT M02/M18 A3018 RMK A01 T10211175  RH  030%=      5-min Rain = 0
KCL1 120303Z 12008KT M02/M18 A3018 RMK A01 T10241176  RH  030%=      5-min Rain = 0
KCL1 120304Z 12008KT M03/M18 A3018 RMK A01 T10251177  RH  030%=      5-min Rain = 0
KCL1 120305Z 12009KT M03/M18 A3018 RMK A01 T10271177  RH  030%=      5-min Rain = 0
KCL1 120306Z 12010KT M03/M18 A3018 RMK A01 T10281177  RH  031%=      5-min Rain = 0
KCL1 120307Z 12010KT M03/M18 A3018 RMK A01 T10281176  RH  031%=      5-min Rain = 0
KCL1 120308Z 12010KT M03/M18 A3018 RMK A01 T10281175  RH  031%=      5-min Rain = 0
KCL1 120309Z 12010KT M03/M17 A3018 RMK A01 T10271173  RH  032%=      5-min Rain = 0
KCL1 120310Z 12010KT M03/M17 A3018 RMK A01 T10261171  RH  032%=      5-min Rain = 0
KCL1 120311Z 12010KT M03/M17 A3018 RMK A01 T10251170  RH  032%=      5-min Rain = 0
KCL1 120312Z 12010KT M02/M17 A3018 RMK A01 T10241167  RH  032%=      5-min Rain = 0
KCL1 120313Z 12010KT M02/M17 A3018 RMK A01 T10231166  RH  032%=      5-min Rain = 0
KCL1 120314Z 13010KT M02/M17 A3018 RMK A01 T10221165  RH  033%=      5-min Rain = 0
KCL1 120315Z 13010KT M02/M16 A3018 RMK A01 T10221164  RH  033%=      5-min Rain = 0
KCL1 120316Z 13010KT M02/M16 A3018 RMK A01 T10221164  RH  033%=      5-min Rain = 0
KCL1 120317Z 13010KT M02/M16 A3018 RMK A01 T10231164  RH  033%=      5-min Rain = 0
KCL1 120318Z 13009KT M02/M16 A3018 RMK A01 T10231163  RH  033%=      5-min Rain = 0
KCL1 120319Z 13009KT M02/M16 A3018 RMK A01 T10231162  RH  034%=      5-min Rain = 0
KCL1 120320Z 13009KT M02/M16 A3018 RMK A01 T10221161  RH  034%=      5-min Rain = 0
KCL1 120321Z 13009KT M02/M16 A3018 RMK A01 T10221160  RH  034%=      5-min Rain = 0
KCL1 120322Z 13009KT M02/M16 A3018 RMK A01 T10211159  RH  034%=      5-min Rain = 0
KCL1 120323Z 13009KT M02/M16 A3018 RMK A01 T10201158  RH  034%=      5-min Rain = 0
KCL1 120324Z 13009KT M02/M16 A3018 RMK A01 T10191158  RH  034%=      5-min Rain = 0
KCL1 120325Z 13009KT M02/M16 A3018 RMK A01 T10191158  RH  034%=      5-min Rain = 0
KCL1 120326Z 13009KT M02/M16 A3018 RMK A01 T10191157  RH  034%=      5-min Rain = 0
KCL1 120327Z 13009KT M02/M16 A3018 RMK A01 T10181156  RH  034%=      5-min Rain = 0
KCL1 120328Z 13009KT M02/M16 A3018 RMK A01 T10181156  RH  034%=      5-min Rain = 0
KCL1 120329Z 13009KT M02/M16 A3018 RMK A01 T10181156  RH  034%=      5-min Rain = 0
KCL1 120330Z 13008KT M02/M16 A3018 RMK A01 T10191157  RH  034%=      5-min Rain = 0
KCL1 120331Z 14007KT M02/M16 A3019 RMK A01 T10201156  RH  034%=      5-min Rain = 0
KCL1 120332Z 14006KT M02/M16 A3019 RMK A01 T10201156  RH  034%=      5-min Rain = 0
KCL1 120333Z 14005KT M02/M16 A3019 RMK A01 T10201156  RH  034%=      5-min Rain = 0
KCL1 120334Z 14006KT M02/M16 A3019 RMK A01 T10201156  RH  035%=      5-min Rain = 0
KCL1 120335Z 14005KT M02/M16 A3019 RMK A01 T10201156  RH  035%=      5-min Rain = 0
KCL1 120336Z 14005KT M02/M16 A3019 RMK A01 T10211156  RH  035%=      5-min Rain = 0
KCL1 120337Z 14005KT M02/M16 A3019 RMK A01 T10211156  RH  035%=      5-min Rain = 0
KCL1 120338Z 15005KT M02/M16 A3019 RMK A01 T10221156  RH  035%=      5-min Rain = 0
KCL1 120339Z 16005KT M02/M16 A3019 RMK A01 T10221156  RH  035%=      5-min Rain = 0
KCL1 120340Z 16005KT M02/M16 A3019 RMK A01 T10221156  RH  035%=      5-min Rain = 0
KCL1 120341Z 16006KT M02/M16 A3019 RMK A01 T10221155  RH  035%=      5-min Rain = 0
KCL1 120342Z 15006KT M02/M16 A3019 RMK A01 T10221155  RH  035%=      5-min Rain = 0
KCL1 120343Z 15005KT M02/M16 A3019 RMK A01 T10231157  RH  035%=      5-min Rain = 0
KCL1 120344Z 14007KT M02/M16 A3019 RMK A01 T10241156  RH  035%=      5-min Rain = 0
KCL1 120345Z 15006KT M02/M16 A3019 RMK A01 T10241156  RH  036%=      5-min Rain = 0
KCL1 120346Z 15006KT M02/M16 A3019 RMK A01 T10241156  RH  036%=      5-min Rain = 0
KCL1 120347Z 15007KT M02/M16 A3019 RMK A01 T10241156  RH  036%=      5-min Rain = 0
KCL1 120348Z 15008KT M03/M16 A3019 RMK A01 T10251155  RH  036%=      5-min Rain = 0
KCL1 120349Z 15007KT M02/M15 A3019 RMK A01 T10231153  RH  036%=      5-min Rain = 0
KCL1 120350Z 16008KT M02/M15 A3019 RMK A01 T10201151  RH  036%=      5-min Rain = 0
KCL1 120351Z 15008KT M02/M15 A3019 RMK A01 T10171150  RH  036%=      5-min Rain = 0
KCL1 120352Z 15008KT M02/M15 A3019 RMK A01 T10161150  RH  035%=      5-min Rain = 0
KCL1 120353Z 15007KT M02/M15 A3019 RMK A01 T10161151  RH  035%=      5-min Rain = 0
KCL1 120354Z 15008KT M02/M15 A3019 RMK A01 T10151151  RH  035%=      5-min Rain = 0
KCL1 120355Z 15008KT M02/M15 A3019 RMK A01 T10151151  RH  035%=      5-min Rain = 0
KCL1 120356Z 15008KT M01/M15 A3019 RMK A01 T10141150  RH  035%=      5-min Rain = 0
KCL1 120357Z 15008KT M01/M15 A3019 RMK A01 T10141150  RH  035%=      5-min Rain = 0
KCL1 120358Z 15008KT M01/M15 A3019 RMK A01 T10141151  RH  034%=      5-min Rain = 0
KCL1 120359Z 15007KT M01/M15 A3019 RMK A01 T10141151  RH  034%=      5-min Rain = 0
KCL1 120400Z 15007KT M01/M15 A3019 RMK A01 T10141151  RH  034%=      5-min Rain = 0
KCL1 120401Z 15007KT M01/M15 A3019 RMK A01 T10131151  RH  034%=      5-min Rain = 0
KCL1 120402Z 15006KT M01/M15 A3019 RMK A01 T10131151  RH  034%=      5-min Rain = 0
KCL1 120403Z 15006KT M01/M15 A3019 RMK A01 T10131151  RH  034%=      5-min Rain = 0
KCL1 120404Z 15007KT M02/M15 A3019 RMK A01 T10151152  RH  034%=      5-min Rain = 0
KCL1 120405Z 16006KT M02/M15 A3019 RMK A01 T10161153  RH  034%=      5-min Rain = 0
KCL1 120406Z 15006KT M02/M15 A3019 RMK A01 T10161153  RH  035%=      5-min Rain = 0
KCL1 120407Z 16007KT M02/M15 A3019 RMK A01 T10171153  RH  035%=      5-min Rain = 0
KCL1 120408Z 16007KT M02/M15 A3019 RMK A01 T10171153  RH  035%=      5-min Rain = 0
KCL1 120409Z 16008KT M02/M15 A3019 RMK A01 T10171153  RH  035%=      5-min Rain = 0
KCL1 120410Z 16007KT M02/M15 A3019 RMK A01 T10161152  RH  035%=      5-min Rain = 0
KCL1 120411Z 16007KT M02/M15 A3019 RMK A01 T10151151  RH  035%=      5-min Rain = 0
KCL1 120412Z 15008KT M01/M15 A3019 RMK A01 T10141151  RH  035%=      5-min Rain = 0
KCL1 120413Z 15008KT M01/M15 A3019 RMK A01 T10141151  RH  034%=      5-min Rain = 0
KCL1 120414Z 15008KT M01/M15 A3019 RMK A01 T10121150  RH  034%=      5-min Rain = 0
KCL1 120415Z 15008KT M01/M15 A3019 RMK A01 T10121151  RH  034%=      5-min Rain = 0
KCL1 120416Z 15009KT M01/M15 A3019 RMK A01 T10131151  RH  034%=      5-min Rain = 0
KCL1 120417Z 15008KT M01/M15 A3019 RMK A01 T10131151  RH  034%=      5-min Rain = 0
KCL1 120418Z 15008KT M01/M15 A3019 RMK A01 T10131151  RH  034%=      5-min Rain = 0
KCL1 120419Z 15008KT M01/M15 A3019 RMK A01 T10141151  RH  034%=      5-min Rain = 0
KCL1 120420Z 15008KT M01/M15 A3019 RMK A01 T10141151  RH  034%=      5-min Rain = 0
KCL1 120421Z 15008KT M01/M15 A3019 RMK A01 T10141151  RH  034%=      5-min Rain = 0
KCL1 120422Z 15007KT M01/M15 A3019 RMK A01 T10131150  RH  034%=      5-min Rain = 0
KCL1 120423Z 15008KT M01/M15 A3019 RMK A01 T10131151  RH  034%=      5-min Rain = 0
KCL1 120424Z 15008KT M01/M15 A3019 RMK A01 T10131151  RH  034%=      5-min Rain = 0
KCL1 120425Z 15007KT M01/M15 A3019 RMK A01 T10141152  RH  034%=      5-min Rain = 0
KCL1 120426Z 15008KT M01/M15 A3019 RMK A01 T10141152  RH  034%=      5-min Rain = 0
KCL1 120427Z 15008KT M02/M15 A3019 RMK A01 T10151152  RH  034%=      5-min Rain = 0
KCL1 120428Z 15008KT M02/M15 A3019 RMK A01 T10161153  RH  034%=      5-min Rain = 0
KCL1 120429Z 15008KT M02/M15 A3019 RMK A01 T10171152  RH  035%=      5-min Rain = 0
KCL1 120430Z 15008KT M02/M15 A3019 RMK A01 T10171152  RH  035%=      5-min Rain = 0
KCL1 120431Z 15008KT M02/M15 A3019 RMK A01 T10181153  RH  035%=      5-min Rain = 0
KCL1 120432Z 15008KT M02/M15 A3019 RMK A01 T10181152  RH  035%=      5-min Rain = 0
KCL1 120433Z 15008KT M02/M15 A3019 RMK A01 T10191152  RH  035%=      5-min Rain = 0
KCL1 120434Z 15008KT M02/M15 A3019 RMK A01 T10191152  RH  035%=      5-min Rain = 0
KCL1 120435Z 15008KT M02/M15 A3019 RMK A01 T10191152  RH  036%=      5-min Rain = 0
KCL1 120436Z 15008KT M02/M15 A3019 RMK A01 T10201152  RH  036%=      5-min Rain = 0
KCL1 120437Z 15008KT M02/M15 A3019 RMK A01 T10211152  RH  036%=      5-min Rain = 0
KCL1 120438Z 15008KT M02/M15 A3019 RMK A01 T10211152  RH  036%=      5-min Rain = 0
KCL1 120439Z 15008KT M02/M15 A3019 RMK A01 T10211152  RH  036%=      5-min Rain = 0
KCL1 120440Z 15008KT M02/M15 A3019 RMK A01 T10201152  RH  036%=      5-min Rain = 0
KCL1 120441Z 15007KT M02/M15 A3019 RMK A01 T10201151  RH  036%=      5-min Rain = 0
KCL1 120442Z 15007KT M02/M15 A3019 RMK A01 T10201151  RH  036%=      5-min Rain = 0
KCL1 120443Z 15007KT M02/M15 A3019 RMK A01 T10201151  RH  036%=      5-min Rain = 0
KCL1 120444Z 15007KT M02/M15 A3019 RMK A01 T10201152  RH  036%=      5-min Rain = 0
KCL1 120445Z 15008KT M02/M15 A3019 RMK A01 T10211152  RH  036%=      5-min Rain = 0
KCL1 120446Z 16007KT M02/M15 A3019 RMK A01 T10211152  RH  036%=      5-min Rain = 0
KCL1 120447Z 15007KT M02/M15 A3019 RMK A01 T10211152  RH  036%=      5-min Rain = 0
KCL1 120448Z 15007KT M02/M15 A3019 RMK A01 T10211151  RH  036%=      5-min Rain = 0
KCL1 120449Z 15008KT M02/M15 A3019 RMK A01 T10201150  RH  036%=      5-min Rain = 0
KCL1 120450Z 16008KT M02/M15 A3019 RMK A01 T10201150  RH  036%=      5-min Rain = 0
KCL1 120451Z 16007KT M02/M15 A3019 RMK A01 T10191150  RH  036%=      5-min Rain = 0
KCL1 120452Z 16007KT M02/M15 A3019 RMK A01 T10191150  RH  036%=      5-min Rain = 0
KCL1 120453Z 15007KT M02/M15 A3019 RMK A01 T10201150  RH  036%=      5-min Rain = 0
KCL1 120454Z 15007KT M02/M15 A3019 RMK A01 T10201151  RH  036%=      5-min Rain = 0
KCL1 120455Z 15008KT M02/M15 A3019 RMK A01 T10211151  RH  036%=      5-min Rain = 0
KCL1 120456Z 15007KT M02/M15 A3019 RMK A01 T10221151  RH  036%=      5-min Rain = 0
KCL1 120457Z 15007KT M02/M15 A3019 RMK A01 T10221151  RH  037%=      5-min Rain = 0
KCL1 120458Z 15007KT M02/M15 A3019 RMK A01 T10221151  RH  037%=      5-min Rain = 0
KCL1 120459Z 15007KT M02/M15 A3019 RMK A01 T10221150  RH  037%=      5-min Rain = 0
KCL1 120500Z 16007KT M02/M15 A3019 RMK A01 T10221150  RH  037%=      5-min Rain = 0
KCL1 120501Z 16007KT M02/M15 A3019 RMK A01 T10221150  RH  037%=      5-min Rain = 0
KCL1 120502Z 16007KT M02/M15 A3019 RMK A01 T10221150  RH  037%=      5-min Rain = 0
KCL1 120503Z 16007KT M02/M15 A3019 RMK A01 T10221150  RH  037%=      5-min Rain = 0
KCL1 120504Z 16007KT M02/M15 A3019 RMK A01 T10221150  RH  037%=      5-min Rain = 0
KCL1 120505Z 16007KT M02/M15 A3019 RMK A01 T10221150  RH  037%=      5-min Rain = 0
KCL1 120506Z 16007KT M02/M15 A3019 RMK A01 T10231150  RH  037%=      5-min Rain = 0
KCL1 120507Z 15007KT M02/M15 A3019 RMK A01 T10231150  RH  037%=      5-min Rain = 0
KCL1 120508Z 15006KT M02/M15 A3019 RMK A01 T10231150  RH  037%=      5-min Rain = 0
KCL1 120509Z 15006KT M02/M15 A3019 RMK A01 T10241150  RH  037%=      5-min Rain = 0
KCL1 120510Z 15006KT M02/M15 A3019 RMK A01 T10241150  RH  037%=      5-min Rain = 0
KCL1 120511Z 15006KT M03/M15 A3019 RMK A01 T10251150  RH  038%=      5-min Rain = 0
KCL1 120512Z 15006KT M03/M15 A302 RMK A01 T10261150  RH  038%=      5-min Rain = 0
KCL1 120513Z 15007KT M03/M15 A302 RMK A01 T10261150  RH  038%=      5-min Rain = 0
KCL1 120514Z 16007KT M03/M15 A302 RMK A01 T10261150  RH  038%=      5-min Rain = 0
KCL1 120515Z 16007KT M03/M15 A302 RMK A01 T10271150  RH  038%=      5-min Rain = 0
KCL1 120516Z 16007KT M03/M15 A302 RMK A01 T10271150  RH  038%=      5-min Rain = 0
KCL1 120517Z 16007KT M03/M15 A302 RMK A01 T10271150  RH  038%=      5-min Rain = 0
KCL1 120518Z 16007KT M03/M15 A302 RMK A01 T10261149  RH  038%=      5-min Rain = 0
KCL1 120519Z 16007KT M03/M15 A302 RMK A01 T10261149  RH  038%=      5-min Rain = 0
KCL1 120520Z 16007KT M03/M15 A302 RMK A01 T10261148  RH  038%=      5-min Rain = 0
KCL1 120521Z 16006KT M03/M15 A302 RMK A01 T10261149  RH  038%=      5-min Rain = 0
KCL1 120522Z 15007KT M03/M15 A302 RMK A01 T10261149  RH  038%=      5-min Rain = 0
KCL1 120523Z 15007KT M03/M15 A302 RMK A01 T10261150  RH  038%=      5-min Rain = 0
KCL1 120524Z 15007KT M03/M15 A302 RMK A01 T10261149  RH  038%=      5-min Rain = 0
KCL1 120525Z 15007KT M03/M15 A302 RMK A01 T10271149  RH  038%=      5-min Rain = 0
KCL1 120526Z 15007KT M03/M15 A302 RMK A01 T10271149  RH  038%=      5-min Rain = 0
KCL1 120527Z 15007KT M03/M15 A302 RMK A01 T10271149  RH  038%=      5-min Rain = 0
KCL1 120528Z 15007KT M03/M15 A302 RMK A01 T10271149  RH  038%=      5-min Rain = 0
KCL1 120529Z 15006KT M03/M15 A302 RMK A01 T10271150  RH  038%=      5-min Rain = 0
KCL1 120530Z 15006KT M03/M15 A302 RMK A01 T10281150  RH  039%=      5-min Rain = 0
KCL1 120531Z 15007KT M03/M15 A302 RMK A01 T10281150  RH  039%=      5-min Rain = 0
KCL1 120532Z 15006KT M03/M15 A302 RMK A01 T10281149  RH  039%=      5-min Rain = 0
KCL1 120533Z 15007KT M03/M15 A302 RMK A01 T10281149  RH  039%=      5-min Rain = 0
KCL1 120534Z 15007KT M03/M15 A302 RMK A01 T10281149  RH  039%=      5-min Rain = 0
KCL1 120535Z 15007KT M03/M15 A302 RMK A01 T10281149  RH  039%=      5-min Rain = 0
KCL1 120536Z 16007KT M03/M15 A302 RMK A01 T10291150  RH  039%=      5-min Rain = 0
KCL1 120537Z 16007KT M03/M15 A3021 RMK A01 T10291150  RH  039%=      5-min Rain = 0
KCL1 120538Z 16007KT M03/M15 A3021 RMK A01 T10291149  RH  039%=      5-min Rain = 0
KCL1 120539Z 15006KT M03/M15 A3021 RMK A01 T10291149  RH  039%=      5-min Rain = 0
KCL1 120540Z 15006KT M03/M15 A3021 RMK A01 T10291150  RH  039%=      5-min Rain = 0
KCL1 120541Z 15006KT M03/M15 A3021 RMK A01 T10291150  RH  039%=      5-min Rain = 0
KCL1 120542Z 15006KT M03/M15 A3021 RMK A01 T10301150  RH  039%=      5-min Rain = 0
KCL1 120543Z 15006KT M03/M15 A3021 RMK A01 T10301149  RH  039%=      5-min Rain = 0
KCL1 120544Z 16006KT M03/M15 A3021 RMK A01 T10301149  RH  039%=      5-min Rain = 0
KCL1 120545Z 15006KT M03/M15 A3021 RMK A01 T10291149  RH  039%=      5-min Rain = 0
KCL1 120546Z 15006KT M03/M15 A3021 RMK A01 T10291149  RH  039%=      5-min Rain = 0
KCL1 120547Z 15006KT M03/M15 A3021 RMK A01 T10281149  RH  039%=      5-min Rain = 0
KCL1 120548Z 15006KT M03/M15 A3021 RMK A01 T10281149  RH  039%=      5-min Rain = 0
KCL1 120549Z 15006KT M03/M15 A3021 RMK A01 T10291150  RH  039%=      5-min Rain = 0
KCL1 120550Z 14006KT M03/M15 A3021 RMK A01 T10301150  RH  039%=      5-min Rain = 0
KCL1 120551Z 14007KT M03/M15 A3021 RMK A01 T10311150  RH  039%=      5-min Rain = 0
KCL1 120552Z 14007KT M03/M15 A3021 RMK A01 T10321151  RH  039%=      5-min Rain = 0
KCL1 120553Z 14007KT M03/M15 A3021 RMK A01 T10331150  RH  040%=      5-min Rain = 0
KCL1 120554Z 14007KT M03/M15 A3021 RMK A01 T10331150  RH  040%=      5-min Rain = 0
KCL1 120555Z 14007KT M03/M15 A3021 RMK A01 T10331150  RH  040%=      5-min Rain = 0
KCL1 120556Z 14007KT M03/M15 A3021 RMK A01 T10331150  RH  040%=      5-min Rain = 0
KCL1 120557Z 14007KT M03/M15 A3021 RMK A01 T10331150  RH  040%=      5-min Rain = 0
KCL1 120558Z 14007KT M03/M15 A3021 RMK A01 T10341150  RH  040%=      5-min Rain = 0
KCL1 120559Z 14007KT M03/M15 A3021 RMK A01 T10341150  RH  040%=      5-min Rain = 0

Page generated in 0.0928 seconds.